Flight Track Log - Related Links

Times and Time Zones

All times are in EDT time to prevent confusion due to time zone crossing. See the THY6 flight status page for this flight to view local times or setup timezone preferences in your user account.

Time Position Orientation Groundspeed Altitude Reporting Facility
EDT Latitude Longitude Course Direction KTS MPH feet Rate Location/Type
Sun 11:33:27 PM 41.9700 -87.8850 90° East 176 203 1,400  Level FlightAware ADS-B
Sun 11:33:57 PM 41.9720 -87.8540 85° East 186 214 2,400 1,964 Climbing FlightAware ADS-B
Sun 11:34:22 PM 41.9780 -87.8230 75° East 202 232 3,200 1,650 Climbing FlightAware ADS-B
Sun 11:34:37 PM 41.9880 -87.8100 44° Northeast 211 243 3,500 1,200 Climbing FlightAware ADS-B
Sun 11:35:07 PM 42.0120 -87.7870 35° Northeast 218 251 4,100 982 Climbing FlightAware ADS-B
Sun 11:35:32 PM 42.0340 -87.7670 34° Northeast 244 281 4,400 600 Climbing FlightAware ADS-B
Sun 11:35:47 PM 42.0500 -87.7550 29° Northeast 262 302 4,500 600 Climbing FlightAware ADS-B
Sun 11:36:02 PM 42.0660 -87.7530 North 274 315 4,700 1,200 Climbing FlightAware ADS-B
Sun 11:36:17 PM 42.0860 -87.7530 360° North 289 333 5,100 2,100 Climbing FlightAware ADS-B
Sun 11:36:42 PM 42.1200 -87.7540 359° North 294 338 6,100 2,291 Climbing FlightAware ADS-B
Sun 11:37:12 PM 42.1600 -87.7540 360° North 299 344 7,200 2,200 Climbing FlightAware ADS-B
Sun 11:37:42 PM 42.2040 -87.7550 359° North 307 353 8,300 2,073 Climbing FlightAware ADS-B
Sun 11:38:07 PM 42.2380 -87.7560 359° North 314 361 9,100 2,123 Climbing FlightAware ADS-B
Sun 11:38:47 PM 42.2970 -87.7590 358° North 318 366 10,600 1,482 Climbing FlightAware ADS-B
Sun 11:39:32 PM 42.3650 -87.7610 359° North 359 413 11,200 847 Climbing FlightAware ADS-B
Sun 11:40:12 PM 42.4400 -87.7640 358° North 399 459 11,800 1,500 Climbing FlightAware ADS-B
Sun 11:41:12 PM 42.5500 -87.7410 North 412 474 13,700 2,040 Climbing FlightAware ADS-B
Sun 11:41:52 PM 42.6130 -87.6750 38° Northeast 414 476 15,200 2,250 Climbing FlightAware ADS-B
Sun 11:42:32 PM 42.6760 -87.6130 36° Northeast 416 479 16,700 1,835 Climbing FlightAware ADS-B
Sun 11:43:17 PM 42.7390 -87.5490 37° Northeast 426 490 17,800 1,624 Climbing FlightAware ADS-B
Sun 11:43:57 PM 42.8080 -87.4790 37° Northeast 435 501 19,000 1,624 Climbing FlightAware ADS-B
Sun 11:44:42 PM 42.8840 -87.4040 36° Northeast 447 514 20,100 1,482 Climbing FlightAware ADS-B
Sun 11:45:22 PM 42.9490 -87.3390 36° Northeast 454 522 21,100 1,575 Climbing FlightAware ADS-B
Sun 11:46:02 PM 43.0160 -87.2720 36° Northeast 457 526 22,200 1,482 Climbing FlightAware ADS-B
Sun 11:46:47 PM 43.0940 -87.1930 36° Northeast 463 533 23,200 1,271 Climbing FlightAware ADS-B
Sun 11:47:27 PM 43.1650 -87.1220 36° Northeast 470 541 24,000 1,200 Climbing FlightAware ADS-B
Sun 11:48:12 PM 43.2450 -87.0400 37° Northeast 478 550 24,900 1,129 Climbing FlightAware ADS-B
Sun 11:48:52 PM 43.3170 -86.9670 36° Northeast 486 559 25,600 1,050 Climbing FlightAware ADS-B
Sun 11:49:32 PM 43.3890 -86.8930 37° Northeast 490 564 26,300 1,129 Climbing FlightAware ADS-B
Sun 11:50:17 PM 43.4690 -86.8120 36° Northeast 493 567 27,200 1,129 Climbing FlightAware ADS-B
Sun 11:50:57 PM 43.5450 -86.7340 37° Northeast 494 568 27,900 1,129 Climbing FlightAware ADS-B
Sun 11:51:42 PM 43.6270 -86.6490 37° Northeast 493 567 28,800 1,200 Climbing FlightAware ADS-B
Sun 11:52:22 PM 43.7000 -86.5730 37° Northeast 490 564 29,600 1,120 Climbing FlightAware ADS-B
Sun 11:52:57 PM 43.7600 -86.5110 37° Northeast 490 564 30,200 988 Climbing FlightAware ADS-B
Sun 11:53:47 PM 43.8540 -86.4140 37° Northeast 491 565 31,000 867 Climbing FlightAware ADS-B
Sun 11:54:27 PM 43.9240 -86.3400 37° Northeast 492 566 31,500 988 Climbing FlightAware ADS-B
Sun 11:55:12 PM 44.0070 -86.2530 37° Northeast 488 562 32,400 1,129 Climbing FlightAware ADS-B
Sun 11:55:52 PM 44.0800 -86.1770 37° Northeast 484 557 33,100 1,050 Climbing FlightAware ADS-B
Sun 11:56:32 PM 44.1510 -86.1020 37° Northeast 478 550 33,800 918 Climbing FlightAware ADS-B
Sun 11:57:17 PM 44.2280 -86.0210 37° Northeast 475 547 34,400 900 Climbing FlightAware ADS-B
Sun 11:57:52 PM 44.2890 -85.9550 38° Northeast 471 542 35,000 424 Climbing FlightAware ADS-B
Sun 11:58:42 PM 44.3720 -85.8670 37° Northeast 469 540 35,000  Level FlightAware ADS-B
Sun 11:59:22 PM 44.4440 -85.7900 37° Northeast 467 537 35,000  Level FlightAware ADS-B
Mon 12:00:02 AM 44.5090 -85.7210 37° Northeast 468 539 35,000  Level FlightAware ADS-B
Mon 12:00:47 AM 44.5860 -85.6380 38° Northeast 469 540 35,000  Level FlightAware ADS-B
Mon 12:01:27 AM 44.6580 -85.5540 40° Northeast 473 544 35,000  Level FlightAware ADS-B
Mon 12:02:07 AM 44.7180 -85.4630 47° Northeast 476 548 35,000  Level FlightAware ADS-B
Mon 12:02:52 AM 44.7800 -85.3600 50° Northeast 475 547 35,000  Level FlightAware ADS-B
Mon 12:03:32 AM 44.8360 -85.2670 50° Northeast 476 548 35,000  Level FlightAware ADS-B
Mon 12:04:12 AM 44.8930 -85.1680 51° Northeast 477 549 35,000  Level FlightAware ADS-B
Mon 12:04:57 AM 44.9580 -85.0590 50° Northeast 477 549 35,000  Level FlightAware ADS-B
Mon 12:05:42 AM 45.0180 -84.9550 51° Northeast 476 548 35,000  Level FlightAware ADS-B
Mon 12:06:22 AM 45.0730 -84.8600 51° Northeast 476 548 35,000  Level FlightAware ADS-B
Mon 12:07:07 AM 45.1370 -84.7510 50° Northeast 476 548 35,000  Level FlightAware ADS-B
Mon 12:07:42 AM 45.1860 -84.6650 51° Northeast 474 545 35,000  Level FlightAware ADS-B
Mon 12:08:32 AM 45.2550 -84.5460 50° Northeast 471 542 35,000  Level FlightAware ADS-B
Mon 12:09:07 AM 45.3040 -84.4610 51° Northeast 471 542 35,000  Level FlightAware ADS-B
Mon 12:10:02 AM 45.3760 -84.3350 51° Northeast 472 543 35,000  Level FlightAware ADS-B
Mon 12:10:47 AM 45.4400 -84.2230 51° Northeast 474 545 35,000  Level FlightAware ADS-B
Mon 12:11:32 AM 45.5020 -84.1130 51° Northeast 475 547 35,000  Level FlightAware ADS-B
Mon 12:12:12 AM 45.5590 -84.0120 51° Northeast 476 548 35,000  Level FlightAware ADS-B
Mon 12:12:57 AM 45.6200 -83.9020 52° Northeast 474 545 35,000  Level FlightAware ADS-B
Mon 12:13:37 AM 45.6750 -83.8050 51° Northeast 474 545 35,000  Level FlightAware ADS-B
Mon 12:14:17 AM 45.7320 -83.7040 51° Northeast 474 545 35,000  Level FlightAware ADS-B
Mon 12:15:02 AM 45.7910 -83.5980 51° Northeast 476 548 35,000  Level FlightAware ADS-B
Mon 12:15:42 AM 45.8450 -83.5000 52° Northeast 478 550 35,000  Level FlightAware ADS-B
Mon 12:16:27 AM 45.9080 -83.3850 52° Northeast 481 554 35,000  Level FlightAware ADS-B
Mon 12:17:07 AM 45.9640 -83.2840 51° Northeast 487 560 35,000  Level FlightAware ADS-B
Mon 12:17:47 AM 46.0220 -83.1790 51° Northeast 495 570 35,000  Level FlightAware ADS-B
Mon 12:18:32 AM 46.0830 -83.0660 52° Northeast 499 574 35,000  Level FlightAware ADS-B
Mon 12:19:12 AM 46.1360 -82.9680 52° Northeast 497 572 35,000  Level FlightAware ADS-B
Mon 12:19:52 AM 46.1970 -82.8570 52° Northeast 495 570 35,000  Level FlightAware ADS-B
Mon 12:20:37 AM 46.2610 -82.7380 52° Northeast 492 566 35,000  Level FlightAware ADS-B
Mon 12:21:17 AM 46.3170 -82.6340 52° Northeast 491 565 35,000  Level FlightAware ADS-B
Mon 12:22:02 AM 46.3770 -82.5220 52° Northeast 489 563 35,000  Level FlightAware ADS-B
Mon 12:22:42 AM 46.4340 -82.4160 52° Northeast 489 563 35,000  Level FlightAware ADS-B
Mon 12:23:22 AM 46.4860 -82.3180 52° Northeast 489 563 35,000  Level FlightAware ADS-B
Mon 12:24:12 AM 46.5530 -82.1910 52° Northeast 489 563 35,000  Level FlightAware ADS-B
Mon 12:25:02 AM 46.6180 -82.0680 52° Northeast 488 562 35,000  Level FlightAware ADS-B
Mon 12:25:42 AM 46.6660 -81.9800 52° Northeast 488 562 35,000  Level FlightAware ADS-B
Mon 12:26:22 AM 46.7130 -81.8920 52° Northeast 488 562 35,000  Level FlightAware ADS-B
Mon 12:27:02 AM 46.7600 -81.8030 52° Northeast 488 562 35,000  Level FlightAware ADS-B
Mon 12:27:52 AM 46.8570 -81.6080 54° Northeast 489 563 35,000  Level FlightAware ADS-B
Mon 12:28:32 AM 46.9090 -81.5070 53° Northeast 478 550 35,000  Level FlightAware ADS-B
Mon 12:29:12 AM 46.9610 -81.4070 53° Northeast 472 543 35,000  Level FlightAware ADS-B
Mon 12:29:57 AM 47.0130 -81.3050 53° Northeast 472 543 35,000  Level FlightAware ADS-B
Mon 12:30:37 AM 47.0580 -81.2180 53° Northeast 472 543 35,000  Level FlightAware ADS-B
Mon 12:31:17 AM 47.1030 -81.1310 53° Northeast 472 543 35,000  Level FlightAware ADS-B
Mon 12:32:02 AM 47.1830 -80.9710 54° Northeast 473 544 35,000  Level FlightAware ADS-B
Mon 12:32:42 AM 47.2280 -80.8830 53° Northeast 473 544 35,000  Level FlightAware ADS-B
Mon 12:33:22 AM 47.2730 -80.7960 53° Northeast 473 544 35,000  Level FlightAware ADS-B
Mon 12:34:02 AM 47.3180 -80.7080 53° Northeast 473 544 35,000  Level FlightAware ADS-B
Mon 12:34:52 AM 47.3740 -80.5980 53° Northeast 473 544 35,000  Level FlightAware ADS-B
Mon 12:35:32 AM 47.4180 -80.5110 53° Northeast 473 544 35,000  Level FlightAware ADS-B
Mon 12:36:12 AM 47.4630 -80.4230 53° Northeast 473 544 35,000  Level FlightAware ADS-B
Mon 12:36:52 AM 47.5080 -80.3350 53° Northeast 473 544 35,000  Level FlightAware ADS-B
Mon 12:37:42 AM 47.5640 -80.2250 53° Northeast 473 544 35,000  Level FlightAware ADS-B
Mon 12:38:22 AM 47.6090 -80.1370 53° Northeast 473 544 35,000  Level FlightAware ADS-B
Mon 12:39:02 AM 47.6530 -80.0490 53° Northeast 473 544 35,000  Level FlightAware ADS-B
Mon 12:39:42 AM 47.6980 -79.9600 53° Northeast 473 544 35,000  Level FlightAware ADS-B
Mon 12:40:22 AM 47.7430 -79.8720 53° Northeast 473 544 35,000  Level FlightAware ADS-B
Mon 12:41:02 AM 47.7880 -79.7840 53° Northeast 473 544 35,000  Level FlightAware ADS-B
Mon 12:41:43 AM 47.9167 -79.4833 53° Northeast 460 529 35,000  Level Montreal Center
Mon 12:42:43 AM 48.0000 -79.3000 56° Northeast 460 529 35,000  Level Montreal Center
Mon 12:43:43 AM 48.0667 -79.1333 59° Northeast 470 541 35,000  Level Montreal Center
Mon 12:44:43 AM 48.1333 -78.9833 56° Northeast 470 541 35,000  Level Montreal Center
Mon 12:45:43 AM 48.2000 -78.8167 59° Northeast 470 541 35,000  Level Montreal Center
Mon 12:46:43 AM 48.2833 -78.6500 53° Northeast 470 541 35,000  Level Montreal Center
Mon 12:47:43 AM 48.3500 -78.4667 61° Northeast 470 541 35,000  Level Montreal Center
Mon 12:48:43 AM 48.4167 -78.3000 59° Northeast 480 552 35,000  Level Montreal Center
Mon 12:49:43 AM 48.4667 -78.1500 63° Northeast 480 552 35,000  Level Montreal Center
Mon 12:50:43 AM 48.5500 -77.9667 55° Northeast 480 552 35,000  Level Montreal Center
Mon 12:51:43 AM 48.6167 -77.8000 59° Northeast 470 541 35,000  Level Montreal Center
Mon 12:52:43 AM 48.6833 -77.6167 61° Northeast 470 541 35,000  Level Montreal Center
Mon 12:53:43 AM 48.7500 -77.4500 59° Northeast 470 541 35,000  Level Montreal Center
Mon 12:54:43 AM 48.8167 -77.2667 61° Northeast 470 541 35,000  Level Montreal Center
Mon 12:55:43 AM 48.8833 -77.0833 61° Northeast 480 552 35,000  Level Montreal Center
Mon 12:56:43 AM 48.9500 -76.9167 59° Northeast 470 541 35,000  Level Montreal Center
Mon 12:57:43 AM 49.0167 -76.7333 61° Northeast 470 541 35,000  Level Montreal Center
Mon 12:58:43 AM 49.0667 -76.5500 67° East 470 541 35,000  Level Montreal Center
Mon 12:59:43 AM 49.1333 -76.3833 59° Northeast 470 541 35,000  Level Montreal Center
Mon 01:00:43 AM 49.2000 -76.2167 58° Northeast 470 541 35,000  Level Montreal Center
Mon 01:01:43 AM 49.2667 -76.0500 58° Northeast 470 541 35,000  Level Montreal Center
Mon 01:02:43 AM 49.3333 -75.8667 61° Northeast 470 541 35,000  Level Montreal Center
Mon 01:03:43 AM 49.4000 -75.6833 61° Northeast 470 541 35,000  Level Montreal Center
Mon 01:04:43 AM 49.4500 -75.5000 67° East 470 541 35,000  Level Montreal Center
Mon 01:05:43 AM 49.5167 -75.3167 61° Northeast 470 541 35,000  Level Montreal Center
Mon 01:06:43 AM 49.5833 -75.1333 61° Northeast 470 541 35,000  Level Montreal Center
Mon 01:07:43 AM 49.6333 -74.9833 63° Northeast 470 541 35,000  Level Montreal Center
Mon 01:08:43 AM 49.7000 -74.8000 61° Northeast 470 541 35,000  Level Montreal Center
Mon 01:09:43 AM 49.7667 -74.6167 61° Northeast 470 541 35,000  Level Montreal Center
Mon 01:10:43 AM 49.8333 -74.4333 61° Northeast 470 541 35,000  Level Montreal Center
Mon 01:11:43 AM 49.8833 -74.2500 67° East 470 541 35,000  Level Montreal Center
Mon 01:13:25 AM 49.9833 -73.9167 65° Northeast 480 552 35,000  Level Montreal Center
Mon 01:14:25 AM 50.0500 -73.7333 60° Northeast 480 552 35,000  Level Montreal Center
Mon 01:15:25 AM 50.1167 -73.5500 60° Northeast 480 552 35,000  Level Montreal Center
Mon 01:16:25 AM 50.1833 -73.3667 60° Northeast 490 564 35,000  Level Montreal Center
Mon 01:17:25 AM 50.2500 -73.1833 60° Northeast 480 552 35,000  Level Montreal Center
Mon 01:18:25 AM 50.3000 -72.9833 69° East 490 564 35,000  Level Montreal Center
Mon 01:19:25 AM 50.3667 -72.7667 64° Northeast 490 564 35,000  Level Montreal Center
Mon 01:20:25 AM 50.4333 -72.6167 55° Northeast 490 564 35,000  Level Montreal Center
Mon 01:21:25 AM 50.4833 -72.4000 70° East 490 564 35,000  Level Montreal Center
Mon 01:22:25 AM 50.5500 -72.2000 62° Northeast 490 564 35,000  Level Montreal Center
Mon 01:23:25 AM 50.6000 -72.0167 67° East 490 564 35,000  Level Montreal Center
Mon 01:24:25 AM 50.6500 -71.8167 68° East 490 564 35,000  Level Montreal Center
Mon 01:25:25 AM 50.7167 -71.6333 60° Northeast 480 552 35,000  Level Montreal Center
Mon 01:26:25 AM 50.7833 -71.4333 62° Northeast 480 552 35,000  Level Montreal Center
Mon 01:27:25 AM 50.8333 -71.2500 67° East 480 552 35,000  Level Montreal Center
Mon 01:28:25 AM 50.9000 -71.0500 62° Northeast 490 564 35,000  Level Montreal Center
Mon 01:29:25 AM 50.9500 -70.8667 67° East 490 564 35,000  Level Montreal Center
Mon 01:30:25 AM 51.0167 -70.6333 65° Northeast 490 564 35,000  Level Montreal Center
Mon 01:31:25 AM 51.0667 -70.4500 66° East 490 564 35,000  Level Montreal Center
Mon 01:32:25 AM 51.1167 -70.2500 68° East 490 564 35,000  Level Montreal Center
Mon 01:33:25 AM 51.1833 -70.0500 62° Northeast 490 564 35,000  Level Montreal Center
Mon 01:34:25 AM 51.2333 -69.8667 66° East 490 564 35,000  Level Montreal Center
Mon 01:35:25 AM 51.2833 -69.6667 68° East 480 552 35,000  Level Montreal Center
Mon 01:36:25 AM 51.3333 -69.4667 68° East 490 564 35,000  Level Montreal Center
Mon 01:37:25 AM 51.4000 -69.2500 64° Northeast 490 564 35,000  Level Montreal Center
Mon 01:38:25 AM 51.4500 -69.0500 68° East 490 564 35,000  Level Montreal Center
Mon 01:39:25 AM 51.5167 -68.8500 62° Northeast 490 564 35,000  Level Montreal Center
Mon 01:40:25 AM 51.5833 -68.6500 62° Northeast 490 564 35,000  Level Montreal Center
Mon 01:41:25 AM 51.6333 -68.4667 66° East 490 564 35,000  Level Montreal Center
Mon 01:42:25 AM 51.7000 -68.2667 62° Northeast 490 564 35,000  Level Montreal Center
Mon 01:43:25 AM 51.7500 -68.0667 68° East 490 564 35,000  Level Montreal Center
Mon 01:44:25 AM 51.8333 -67.8667 56° Northeast 490 564 35,000  Level Montreal Center
Mon 01:45:25 AM 51.8833 -67.6667 68° East 490 564 35,000  Level Montreal Center
Mon 01:46:25 AM 51.9500 -67.4500 63° Northeast 490 564 35,000  Level Montreal Center
Mon 01:47:25 AM 52.0000 -67.2500 68° East 490 564 35,000  Level Montreal Center
Mon 01:48:25 AM 52.0500 -67.0833 64° Northeast 480 552 35,000  Level Montreal Center
Mon 01:49:25 AM 52.1000 -66.8500 71° East 480 552 35,000  Level Montreal Center
Mon 01:50:25 AM 52.1833 -66.6667 53° Northeast 480 552 35,000  Level Montreal Center
Mon 01:51:25 AM 52.2333 -66.4667 68° East 480 552 35,000  Level Montreal Center
Mon 01:52:25 AM 52.2833 -66.2500 69° East 480 552 35,000  Level Montreal Center
Mon 01:53:25 AM 52.3333 -66.0833 64° Northeast 480 552 35,000  Level Montreal Center
Mon 01:54:25 AM 52.4000 -65.8667 63° Northeast 480 552 35,000  Level Montreal Center
Mon 01:55:25 AM 52.4500 -65.6667 68° East 480 552 35,000  Level Montreal Center
Mon 01:56:25 AM 52.5000 -65.4833 66° East 470 541 35,000  Level Montreal Center
Mon 01:57:25 AM 52.5500 -65.2833 68° East 470 541 35,000  Level Montreal Center
Mon 01:58:25 AM 52.6167 -65.0667 63° Northeast 470 541 35,000  Level Montreal Center
Mon 01:59:25 AM 52.6667 -64.8833 66° East 470 541 35,000  Level Montreal Center
Mon 02:00:25 AM 52.7167 -64.6667 69° East 470 541 35,000  Level Montreal Center
Mon 02:01:25 AM 52.7667 -64.5000 64° Northeast 470 541 35,000  Level Montreal Center
Mon 02:02:25 AM 52.8167 -64.3167 66° East 460 529 35,000  Level Montreal Center
Mon 02:03:25 AM 52.8667 -64.1000 69° East 470 541 35,000  Level Montreal Center
Mon 02:04:25 AM 52.9000 -63.8833 76° East 470 541 35,000  Level Montreal Center
Mon 02:05:25 AM 52.9667 -63.7000 59° Northeast 460 529 35,000  Level Montreal Center
Mon 02:06:25 AM 53.0167 -63.4833 69° East 460 529 35,000  Level Montreal Center
Mon 02:07:25 AM 53.0667 -63.3000 66° East 460 529 35,000  Level Montreal Center
Mon 02:08:25 AM 53.1167 -63.1000 67° East 460 529 35,000  Level Montreal Center
Mon 02:09:25 AM 53.1500 -62.8833 76° East 460 529 35,000  Level Montreal Center
Mon 02:10:25 AM 53.2000 -62.7000 65° Northeast 460 529 35,000  Level Montreal Center
Mon 02:11:25 AM 53.2500 -62.5167 65° Northeast 460 529 35,000  Level Montreal Center
Mon 02:12:25 AM 53.3000 -62.3000 69° East 460 529 35,000  Level Montreal Center
Mon 02:13:25 AM 53.3500 -62.1167 65° Northeast 460 529 35,000  Level Montreal Center
Mon 02:14:25 AM 53.4000 -61.8833 70° East 460 529 35,000  Level Montreal Center
Mon 02:14:43 AM 53.4167 -61.9000 329° Northwest 460 529 35,000  Level Gander Center
Mon 02:15:43 AM 53.4667 -61.6833 69° East 460 529 35,000  Level Gander Center
Mon 02:16:43 AM 53.5000 -61.4833 74° East 460 529 35,000  Level Gander Center
Mon 02:17:43 AM 53.5500 -61.2833 67° East 460 529 35,000  Level Gander Center
Mon 02:18:43 AM 53.6000 -61.0833 67° East 470 541 35,000  Level Gander Center
Mon 02:19:43 AM 53.6333 -60.8833 74° East 470 541 35,000  Level Gander Center
Mon 02:20:43 AM 53.6833 -60.6667 69° East 470 541 35,000  Level Gander Center
Mon 02:21:43 AM 53.7333 -60.4667 67° East 470 541 35,000  Level Gander Center
Mon 02:22:43 AM 53.7833 -60.2667 67° East 460 529 35,000  Level Gander Center
Mon 02:23:43 AM 53.8000 -60.0667 82° East 460 529 35,000  Level Gander Center
Mon 02:24:43 AM 53.8500 -59.8333 70° East 460 529 35,000  Level Gander Center
Mon 02:25:43 AM 53.9000 -59.6333 67° East 460 529 35,000  Level Gander Center
Mon 02:26:43 AM 53.9333 -59.4333 74° East 460 529 35,000  Level Gander Center
Mon 02:27:43 AM 53.9833 -59.2333 67° East 460 529 35,000  Level Gander Center
Mon 02:28:43 AM 54.0333 -59.0333 67° East 460 529 35,000  Level Gander Center
Mon 02:29:43 AM 54.0667 -58.8000 76° East 460 529 35,000  Level Gander Center
Mon 02:30:43 AM 54.1000 -58.6000 74° East 460 529 35,000  Level Gander Center
Mon 02:31:43 AM 54.1500 -58.4000 67° East 460 529 35,000  Level Gander Center
Mon 02:32:43 AM 54.2000 -58.2000 67° East 460 529 35,000  Level Gander Center
Mon 02:33:43 AM 54.2167 -58.0000 82° East 460 529 35,000  Level Gander Center
Mon 02:34:37 AM 54.2667 -57.7833 68° East 460 529 35,000  Level Gander Center
Mon 02:35:43 AM 54.3167 -57.5833 67° East 460 529 35,000  Level Gander Center
Mon 02:36:43 AM 54.3333 -57.3500 83° East 460 529 35,000  Level Gander Center
Mon 02:37:43 AM 54.3833 -57.1500 67° East 460 529 35,000  Level Gander Center
Mon 02:38:43 AM 54.4167 -56.9500 74° East 460 529 35,000  Level Gander Center
Mon 02:39:43 AM 54.4500 -56.7333 75° East 460 529 35,000  Level Gander Center
Mon 02:40:43 AM 54.4833 -56.5000 76° East 460 529 35,000  Level Gander Center
Mon 02:41:43 AM 54.5333 -56.3000 67° East 460 529 35,000  Level Gander Center
Mon 02:42:43 AM 54.5667 -56.0833 75° East 460 529 35,000  Level Gander Center
Mon 02:43:43 AM 54.6000 -55.8833 74° East 460 529 35,000  Level Gander Center
Mon 02:44:43 AM 54.6167 -55.6833 82° East 460 529 35,000  Level Gander Center
Mon 02:45:43 AM 54.6500 -55.4500 76° East 460 529 35,000  Level Gander Center
Mon 02:46:43 AM 54.6667 -55.2333 82° East 460 529 35,000  Level Gander Center
Mon 02:47:43 AM 54.6833 -55.0000 83° East 460 529 35,000  Level Gander Center
Mon 02:48:43 AM 54.7000 -54.7667 83° East 460 529 35,000  Level Gander Center
Mon 02:49:43 AM 54.7167 -54.5667 82° East 460 529 35,000  Level Gander Center
Mon 02:50:43 AM 54.7333 -54.3333 83° East 460 529 35,000  Level Gander Center
Mon 02:51:43 AM 54.7500 -54.1167 82° East 460 529 35,000  Level Gander Center
Mon 02:52:43 AM 54.7667 -53.9167 82° East 460 529 35,000  Level Gander Center
Mon 02:53:37 AM 54.7833 -53.7167 82° East 460 529 35,000  Level Gander Center
Mon 02:54:37 AM 54.7833 -53.4833 90° East 460 529 35,000  Level Gander Center
Mon 02:55:37 AM 54.8167 -53.2667 75° East 460 529 35,000  Level Gander Center
Mon 02:57:00 AM 54.8369 -52.9722 83° East  Level FlightAware Approximate
Mon 02:58:33 AM 54.8500 -52.6500 83° East 370 426 35,000  Level Gander Center
Mon 02:59:33 AM 54.8667 -52.4167 83° East 460 529 35,000  Level Gander Center
Mon 03:00:33 AM 54.8833 -52.2000 82° East 460 529 35,000  Level Gander Center
Mon 03:01:33 AM 54.8833 -51.9667 90° East 460 529 35,000  Level Gander Center
Mon 03:02:33 AM 54.9000 -51.7333 83° East 460 529 35,000  Level Gander Center
Mon 03:03:33 AM 54.9167 -51.5167 82° East 460 529 35,000  Level Gander Center
Mon 03:04:39 AM 54.9333 -51.2500 84° East 470 541 35,000  Level Gander Center
Mon 03:05:39 AM 54.9667 -51.0500 74° East 470 541 35,000  Level Gander Center
Mon 03:06:39 AM 54.9500 -50.7833 96° East 470 541 35,000  Level Gander Center
Mon 03:07:39 AM 54.9333 -50.5500 97° East 470 541 35,000 13 Level Gander Center
Mon 03:09:00 AM 54.9707 -50.2442 78° East  Level FlightAware Approximate
Mon 03:16:00 AM 55.1854 -48.6565 76° East  Level FlightAware Approximate
Mon 03:17:00 AM 55.2152 -48.4294 77° East  Level FlightAware Approximate
Mon 03:18:00 AM 55.2445 -48.2019 77° East  Level FlightAware Approximate
Mon 03:19:00 AM 55.2734 -47.9741 77° East  Level FlightAware Approximate
Mon 03:20:00 AM 55.3018 -47.7459 78° East  Level FlightAware Approximate
Mon 03:21:00 AM 55.3298 -47.5174 78° East  Level FlightAware Approximate
Mon 03:22:00 AM 55.3575 -47.2886 78° East  Level FlightAware Approximate
Mon 03:23:00 AM 55.3846 -47.0595 78° East  Level FlightAware Approximate
Mon 03:24:00 AM 55.4114 -46.8301 78° East  Level FlightAware Approximate
Mon 03:25:00 AM 55.4377 -46.6003 78° East  Level FlightAware Approximate
Mon 03:26:00 AM 55.4636 -46.3703 79° East  Level FlightAware Approximate
Mon 03:27:00 AM 55.4891 -46.1400 79° East  Level FlightAware Approximate
Mon 03:28:00 AM 55.5141 -45.9093 79° East  Level FlightAware Approximate
Mon 03:29:00 AM 55.5387 -45.6784 79° East  Level FlightAware Approximate
Mon 03:30:00 AM 55.5628 -45.4472 79° East  Level FlightAware Approximate
Mon 03:31:00 AM 55.5866 -45.2157 80° East  Level FlightAware Approximate
Mon 03:32:00 AM 55.6098 -44.9839 80° East  Level FlightAware Approximate
Mon 03:33:00 AM 55.6327 -44.7519 80° East  Level FlightAware Approximate
Mon 03:34:00 AM 55.6551 -44.5196 80° East  Level FlightAware Approximate
Mon 03:35:00 AM 55.6771 -44.2870 80° East  Level FlightAware Approximate
Mon 03:36:00 AM 55.6986 -44.0541 81° East  Level FlightAware Approximate
Mon 03:37:00 AM 55.7197 -43.8210 81° East  Level FlightAware Approximate
Mon 03:38:00 AM 55.7403 -43.5877 81° East  Level FlightAware Approximate
Mon 03:39:00 AM 55.7605 -43.3541 81° East  Level FlightAware Approximate
Mon 03:40:00 AM 55.7803 -43.1203 81° East  Level FlightAware Approximate
Mon 03:41:00 AM 55.7996 -42.8862 82° East  Level FlightAware Approximate
Mon 03:42:00 AM 55.8185 -42.6519 82° East  Level FlightAware Approximate
Mon 03:43:00 AM 55.8369 -42.4174 82° East  Level FlightAware Approximate
Mon 03:44:00 AM 55.8549 -42.1827 82° East  Level FlightAware Approximate
Mon 03:45:00 AM 55.8724 -41.9478 82° East  Level FlightAware Approximate
Mon 03:46:00 AM 55.8895 -41.7126 83° East  Level FlightAware Approximate
Mon 03:47:00 AM 55.9061 -41.4772 83° East  Level FlightAware Approximate
Mon 03:48:00 AM 55.9223 -41.2417 83° East  Level FlightAware Approximate
Mon 03:49:00 AM 55.9380 -41.0059 83° East  Level FlightAware Approximate
Mon 03:50:00 AM 55.9533 -40.7700 83° East  Level FlightAware Approximate
Mon 03:51:00 AM 55.9682 -40.5339 83° East  Level FlightAware Approximate
Mon 03:52:00 AM 55.9825 -40.2975 84° East  Level FlightAware Approximate
Mon 03:53:00 AM 55.9965 -40.0611 84° East  Level FlightAware Approximate
Mon 03:54:00 AM 56.0244 -39.8290 76° East  Level FlightAware Approximate
Mon 03:55:00 AM 56.0570 -39.5981 76° East  Level FlightAware Approximate
Mon 03:56:00 AM 56.0892 -39.3669 76° East  Level FlightAware Approximate
Mon 03:57:00 AM 56.1209 -39.1353 76° East  Level FlightAware Approximate
Mon 03:58:00 AM 56.1522 -38.9033 76° East  Level FlightAware Approximate
Mon 03:59:00 AM 56.1830 -38.6709 76° East  Level FlightAware Approximate
Mon 04:00:00 AM 56.2134 -38.4381 77° East  Level FlightAware Approximate
Mon 04:01:00 AM 56.2434 -38.2050 77° East  Level FlightAware Approximate
Mon 04:02:00 AM 56.2729 -37.9715 77° East  Level FlightAware Approximate
Mon 04:03:00 AM 56.3020 -37.7377 77° East  Level FlightAware Approximate
Mon 04:04:00 AM 56.3307 -37.5035 77° East  Level FlightAware Approximate
Mon 04:05:00 AM 56.3589 -37.2690 78° East  Level FlightAware Approximate
Mon 04:06:00 AM 56.3867 -37.0341 78° East  Level FlightAware Approximate
Mon 04:07:00 AM 56.4140 -36.7989 78° East  Level FlightAware Approximate
Mon 04:08:00 AM 56.4409 -36.5633 78° East  Level FlightAware Approximate
Mon 04:09:00 AM 56.4673 -36.3274 78° East  Level FlightAware Approximate
Mon 04:10:00 AM 56.4933 -36.0912 79° East  Level FlightAware Approximate
Mon 04:11:00 AM 56.5188 -35.8547 79° East  Level FlightAware Approximate
Mon 04:12:00 AM 56.5439 -35.6179 79° East  Level FlightAware Approximate
Mon 04:13:00 AM 56.5685 -35.3807 79° East  Level FlightAware Approximate
Mon 04:14:00 AM 56.5927 -35.1432 79° East  Level FlightAware Approximate
Mon 04:15:00 AM 56.6164 -34.9054 80° East  Level FlightAware Approximate
Mon 04:16:00 AM 56.6397 -34.6674 80° East  Level FlightAware Approximate
Mon 04:17:00 AM 56.6625 -34.4290 80° East  Level FlightAware Approximate
Mon 04:18:00 AM 56.6849 -34.1904 80° East  Level FlightAware Approximate
Mon 04:19:00 AM 56.7068 -33.9515 80° East  Level FlightAware Approximate
Mon 04:20:00 AM 56.7282 -33.7123 81° East  Level FlightAware Approximate
Mon 04:21:00 AM 56.7492 -33.4728 81° East  Level FlightAware Approximate
Mon 04:22:00 AM 56.7697 -33.2331 81° East  Level FlightAware Approximate
Mon 04:23:00 AM 56.7898 -32.9931 81° East  Level FlightAware Approximate
Mon 04:24:00 AM 56.8094 -32.7528 81° East  Level FlightAware Approximate
Mon 04:25:00 AM 56.8286 -32.5123 82° East  Level FlightAware Approximate
Mon 04:26:00 AM 56.8473 -32.2716 82° East  Level FlightAware Approximate
Mon 04:27:00 AM 56.8655 -32.0306 82° East  Level FlightAware Approximate
Mon 04:28:00 AM 56.8832 -31.7894 82° East  Level FlightAware Approximate
Mon 04:29:00 AM 56.9005 -31.5480 82° East  Level FlightAware Approximate
Mon 04:30:00 AM 56.9174 -31.3063 83° East  Level FlightAware Approximate
Mon 04:31:00 AM 56.9337 -31.0645 83° East  Level FlightAware Approximate
Mon 04:32:00 AM 56.9496 -30.8224 83° East  Level FlightAware Approximate
Mon 04:33:00 AM 56.9650 -30.5801 83° East  Level FlightAware Approximate
Mon 04:34:00 AM 56.9800 -30.3376 83° East  Level FlightAware Approximate
Mon 04:35:00 AM 56.9945 -30.0949 84° East  Level FlightAware Approximate
Mon 04:36:00 AM 57.0058 -29.8517 86° East  Level FlightAware Approximate
Mon 04:37:00 AM 57.0150 -29.6080 86° East  Level FlightAware Approximate
Mon 04:38:00 AM 57.0238 -29.3642 86° East  Level FlightAware Approximate
Mon 04:39:00 AM 57.0320 -29.1203 86° East  Level FlightAware Approximate
Mon 04:40:00 AM 57.0398 -28.8762 87° East  Level FlightAware Approximate
Mon 04:41:00 AM 57.0471 -28.6321 87° East  Level FlightAware Approximate
Mon 04:42:00 AM 57.0540 -28.3879 87° East  Level FlightAware Approximate
Mon 04:43:00 AM 57.0603 -28.1436 87° East  Level FlightAware Approximate
Mon 04:44:00 AM 57.0662 -27.8992 87° East  Level FlightAware Approximate
Mon 04:45:00 AM 57.0716 -27.6548 88° East  Level FlightAware Approximate
Mon 04:46:00 AM 57.0766 -27.4102 88° East  Level FlightAware Approximate
Mon 04:47:00 AM 57.0810 -27.1656 88° East  Level FlightAware Approximate
Mon 04:48:00 AM 57.0850 -26.9210 88° East  Level FlightAware Approximate
Mon 04:49:00 AM 57.0885 -26.6763 88° East  Level FlightAware Approximate
Mon 04:50:00 AM 57.0915 -26.4316 89° East  Level FlightAware Approximate
Mon 04:51:00 AM 57.0941 -26.1868 89° East  Level FlightAware Approximate
Mon 04:52:00 AM 57.0962 -25.9420 89° East  Level FlightAware Approximate
Mon 04:53:00 AM 57.0978 -25.6972 89° East  Level FlightAware Approximate
Mon 04:54:00 AM 57.0989 -25.4523 89° East  Level FlightAware Approximate
Mon 04:55:00 AM 57.0995 -25.2075 90° East  Level FlightAware Approximate
Mon 04:56:00 AM 57.0997 -24.9626 90° East  Level FlightAware Approximate
Mon 04:57:00 AM 57.0994 -24.7177 90° East  Level FlightAware Approximate
Mon 04:58:00 AM 57.0986 -24.4729 90° East  Level FlightAware Approximate
Mon 04:59:00 AM 57.0973 -24.2280 90° East  Level FlightAware Approximate
Mon 05:00:00 AM 57.0956 -23.9832 91° East  Level FlightAware Approximate
Mon 05:01:00 AM 57.0934 -23.7384 91° East  Level FlightAware Approximate
Mon 05:02:00 AM 57.0907 -23.4937 91° East  Level FlightAware Approximate
Mon 05:03:00 AM 57.0875 -23.2489 91° East  Level FlightAware Approximate
Mon 05:04:00 AM 57.0839 -23.0043 91° East  Level FlightAware Approximate
Mon 05:05:00 AM 57.0797 -22.7596 92° East  Level FlightAware Approximate
Mon 05:06:00 AM 57.0751 -22.5151 92° East  Level FlightAware Approximate
Mon 05:07:00 AM 57.0700 -22.2706 92° East  Level FlightAware Approximate
Mon 05:08:00 AM 57.0645 -22.0261 92° East  Level FlightAware Approximate
Mon 05:09:00 AM 57.0584 -21.7818 92° East  Level FlightAware Approximate
Mon 05:10:00 AM 57.0519 -21.5375 93° East  Level FlightAware Approximate
Mon 05:11:00 AM 57.0450 -21.2933 93° East  Level FlightAware Approximate
Mon 05:12:00 AM 57.0375 -21.0492 93° East  Level FlightAware Approximate
Mon 05:13:00 AM 57.0296 -20.8052 93° East  Level FlightAware Approximate
Mon 05:14:00 AM 57.0212 -20.5613 94° East  Level FlightAware Approximate
Mon 05:15:00 AM 57.0123 -20.3176 94° East  Level FlightAware Approximate
Mon 05:16:00 AM 57.0029 -20.0739 94° East  Level FlightAware Approximate
Mon 05:17:00 AM 56.9862 -19.8318 99° East  Level FlightAware Approximate
Mon 05:18:00 AM 56.9659 -19.5906 99° East  Level FlightAware Approximate
Mon 05:19:00 AM 56.9452 -19.3497 99° East  Level FlightAware Approximate
Mon 05:20:00 AM 56.9240 -19.1090 99° East  Level FlightAware Approximate
Mon 05:21:00 AM 56.9023 -18.8687 99° East  Level FlightAware Approximate
Mon 05:22:00 AM 56.8802 -18.6285 99° East  Level FlightAware Approximate
Mon 05:23:00 AM 56.8576 -18.3887 100° East  Level FlightAware Approximate
Mon 05:24:00 AM 56.8346 -18.1492 100° East  Level FlightAware Approximate
Mon 05:25:00 AM 56.8111 -17.9100 100° East  Level FlightAware Approximate
Mon 05:26:00 AM 56.7872 -17.6710 100° East  Level FlightAware Approximate
Mon 05:27:00 AM 56.7628 -17.4324 100° East  Level FlightAware Approximate
Mon 05:28:00 AM 56.7379 -17.1941 101° East  Level FlightAware Approximate
Mon 05:29:00 AM 56.7126 -16.9561 101° East  Level FlightAware Approximate
Mon 05:30:00 AM 56.6868 -16.7184 101° East  Level FlightAware Approximate
Mon 05:31:00 AM 56.6606 -16.4811 101° East  Level FlightAware Approximate
Mon 05:32:00 AM 56.6339 -16.2441 101° East  Level FlightAware Approximate
Mon 05:33:00 AM 56.6068 -16.0074 102° East  Level FlightAware Approximate
Mon 05:34:00 AM 56.5793 -15.7711 102° East  Level FlightAware Approximate
Mon 05:35:00 AM 56.5512 -15.5351 102° East  Level FlightAware Approximate
Mon 05:35:32 AM 56.5130 -12.1660 102° East 514 592 37,000  Level FlightAware ADS-B
Mon 05:36:00 AM 56.5228 -15.2995 102° East  Level FlightAware Approximate
Mon 05:36:17 AM 56.4670 -11.9840 115° Southeast 513 590 37,000  Level FlightAware ADS-B
Mon 05:37:12 AM 56.4130 -11.7760 115° Southeast 511 588 37,000  Level FlightAware ADS-B
Mon 05:37:52 AM 56.3760 -11.6280 114° Southeast 511 588 37,000  Level FlightAware ADS-B
Mon 05:38:37 AM 56.3270 -11.4420 115° Southeast 510 587 37,000  Level FlightAware ADS-B
Mon 05:39:22 AM 56.2820 -11.2690 115° Southeast 509 586 37,000  Level FlightAware ADS-B
Mon 05:40:02 AM 56.2410 -11.1150 116° Southeast 507 583 37,000  Level FlightAware ADS-B
Mon 05:40:47 AM 56.1970 -10.9510 116° Southeast 506 582 37,000  Level FlightAware ADS-B
Mon 05:41:22 AM 56.1610 -10.8160 116° Southeast 504 580 37,000  Level FlightAware ADS-B
Mon 05:42:07 AM 56.1150 -10.6440 116° Southeast 504 580 37,000  Level FlightAware ADS-B
Mon 05:42:47 AM 56.0750 -10.4990 116° Southeast 507 583 37,000  Level FlightAware ADS-B
Mon 05:43:32 AM 56.0260 -10.3190 116° Southeast 507 583 37,000  Level FlightAware ADS-B
Mon 05:44:12 AM 55.9860 -10.1740 116° Southeast 506 582 37,000  Level FlightAware ADS-B
Mon 05:44:52 AM 55.9440 -10.0220 116° Southeast 507 583 37,000  Level FlightAware ADS-B
Mon 05:45:37 AM 55.8980 -9.8560 116° Southeast 508 585 37,000  Level FlightAware ADS-B
Mon 05:46:22 AM 55.8520 -9.6940 117° Southeast 507 583 37,000  Level FlightAware ADS-B
Mon 05:47:02 AM 55.8080 -9.5430 117° Southeast 506 582 37,000  Level FlightAware ADS-B
Mon 05:47:42 AM 55.7660 -9.3930 116° Southeast 507 583 37,000  Level FlightAware ADS-B
Mon 05:48:27 AM 55.7160 -9.2230 118° Southeast 504 580 37,000  Level FlightAware ADS-B
Mon 05:49:07 AM 55.6740 -9.0780 117° Southeast 503 579 37,000 -1,500 Level FlightAware ADS-B
Mon 05:49:27 AM 55.6463 -8.9831 117° Southeast 452 520 35,500 -2,368 Descending FlightAware UK
Mon 05:49:45 AM 55.6271 -8.9180 117° Southeast 450 518 35,500 3,600 Level FlightAware UK
Mon 05:49:52 AM 55.6270 -8.9190 117° Southeast 496 571 37,000 250 Climbing FlightAware ADS-B
Mon 05:50:09 AM 55.6015 -8.8334 117° Southeast 454 522 35,600 -2,057 Descending FlightAware UK
Mon 05:50:27 AM 55.5831 -8.7695 117° Southeast 460 529 35,800 5,667 Climbing FlightAware UK
Mon 05:50:27 AM 55.5870 -8.7800 117° Southeast 494 568 37,300 333 Climbing FlightAware ADS-B
Mon 05:50:45 AM 55.5641 -8.7053 117° Southeast 458 527 35,900 -2,000 Descending FlightAware UK
Mon 05:51:03 AM 55.5451 -8.6408 117° Southeast 464 534 36,100 3,375 Climbing FlightAware UK
Mon 05:51:17 AM 55.5360 -8.6100 117° Southeast 488 562 37,700 600 Climbing FlightAware ADS-B
Mon 05:51:33 AM 55.5137 -8.5357 117° Southeast 462 532 36,400 -1,941 Descending FlightAware UK
Mon 05:51:51 AM 55.4950 -8.4737 118° Southeast 458 527 36,600 4,500 Climbing FlightAware UK
Mon 05:51:57 AM 55.4960 -8.4770 118° Southeast 477 549 38,200 500 Climbing FlightAware ADS-B
Mon 05:52:15 AM 55.4704 -8.3917 118° Southeast 462 532 36,800 -2,167 Descending FlightAware UK
Mon 05:52:33 AM 55.4520 -8.3304 118° Southeast 460 529 36,900 4,364 Climbing FlightAware UK
Mon 05:52:37 AM 55.4520 -8.3280 118° Southeast 476 548 38,400 250 Climbing FlightAware ADS-B
Mon 05:52:57 AM 55.4274 -8.2483 118° Southeast 456 525 37,000 -2,053 Descending FlightAware UK
Mon 05:53:15 AM 55.4088 -8.1866 118° Southeast 460 529 37,100 4,080 Climbing FlightAware UK
Mon 05:53:22 AM 55.4050 -8.1750 118° Southeast 482 555 38,700 500 Climbing FlightAware ADS-B
Mon 05:53:39 AM 55.3838 -8.1038 118° Southeast 458 527 37,300 -2,400 Descending FlightAware UK
Mon 05:53:57 AM 55.3648 -8.0414 118° Southeast 464 534 37,300 4,174 Level FlightAware UK
Mon 05:54:02 AM 55.3630 -8.0350 118° Southeast 486 559 38,900 500 Climbing FlightAware ADS-B
Mon 05:54:21 AM 55.3391 -7.9577 118° Southeast 470 541 37,500 -2,270 Descending FlightAware UK
Mon 05:54:39 AM 55.3200 -7.8952 118° Southeast 470 541 37,500 4,286 Level FlightAware UK
Mon 05:54:42 AM 55.3210 -7.8990 118° Southeast 485 558 39,000  Climbing FlightAware ADS-B
Mon 05:54:57 AM 55.3008 -7.8330 118° Southeast 466 536 37,500 -2,727 Descending FlightAware UK
Mon 05:55:15 AM 55.2817 -7.7710 118° Southeast 466 536 37,500 3,000 Level FlightAware UK
Mon 05:55:27 AM 55.2760 -7.7520 118° Southeast 484 557 39,000  Climbing FlightAware ADS-B
Mon 05:55:45 AM 55.2498 -7.6679 118° Southeast 466 536 37,500 -2,500 Descending FlightAware UK
Mon 05:56:03 AM 55.2307 -7.6063 119° Southeast 464 534 37,500 4,091 Level FlightAware UK
Mon 05:56:07 AM 55.2320 -7.6090 119° Southeast 479 551 39,000  Climbing FlightAware ADS-B
Mon 05:56:27 AM 55.2052 -7.5247 119° Southeast 462 532 37,500 -2,368 Descending FlightAware UK
Mon 05:56:45 AM 55.1862 -7.4636 119° Southeast 462 532 37,500 3,600 Level FlightAware UK
Mon 05:56:52 AM 55.1830 -7.4530 119° Southeast 480 552 39,000  Climbing FlightAware ADS-B
Mon 05:57:09 AM 55.1609 -7.3821 119° Southeast 466 536 37,500  Descending FlightAware UK
Mon 05:57:27 AM 55.1460 -7.3340 119° Southeast 477 549 39,000  Climbing FlightAware ADS-B
Mon 05:57:28 AM 55.1415 -7.3202 119° Southeast 466 536 37,500 -4,737 Descending FlightAware UK
Mon 05:57:46 AM 55.1224 -7.2591 119° Southeast 468 539 37,500  Level FlightAware UK
Mon 05:58:04 AM 55.1032 -7.1981 119° Southeast 466 536 37,500 2,903 Level FlightAware UK
Mon 05:58:17 AM 55.0930 -7.1670 119° Southeast 476 548 39,000  Climbing FlightAware ADS-B
Mon 05:58:34 AM 55.0710 -7.0967 119° Southeast 464 534 37,500 -2,571 Descending FlightAware UK
Mon 05:58:52 AM 55.0516 -7.0359 119° Southeast 462 532 37,500 3,913 Level FlightAware UK
Mon 05:58:57 AM 55.0500 -7.0300 119° Southeast 476 548 39,000  Climbing FlightAware ADS-B
Mon 05:59:16 AM 55.0259 -6.9549 119° Southeast 466 536 37,500  Descending FlightAware UK
Mon 05:59:32 AM 55.0170 -6.9250 119° Southeast 475 547 39,000  Climbing FlightAware ADS-B
Mon 05:59:34 AM 55.0065 -6.8943 119° Southeast 466 536 37,500 -4,500 Descending FlightAware UK
Mon 05:59:52 AM 54.9871 -6.8339 119° Southeast 460 529 37,500  Level FlightAware UK
Mon 06:00:10 AM 54.9677 -6.7737 119° Southeast 460 529 37,500 3,000 Level FlightAware UK
Mon 06:00:22 AM 54.9600 -6.7470 119° Southeast 475 547 39,000  Climbing FlightAware ADS-B
Mon 06:00:40 AM 54.9356 -6.6732 119° Southeast 460 529 37,500 -2,500 Descending FlightAware UK
Mon 06:00:58 AM 54.9161 -6.6129 119° Southeast 466 536 37,500 4,091 Level FlightAware UK
Mon 06:01:02 AM 54.9150 -6.6090 119° Southeast 476 548 39,000  Climbing FlightAware ADS-B
Mon 06:01:22 AM 54.8901 -6.5325 119° Southeast 470 541 37,500 -2,368 Descending FlightAware UK
Mon 06:01:40 AM 54.8704 -6.4723 120° Southeast 470 541 37,500 4,500 Level FlightAware UK
Mon 06:01:42 AM 54.8720 -6.4770 120° Southeast 473 544 39,000  Climbing FlightAware ADS-B
Mon 06:01:58 AM 54.8509 -6.4123 120° Southeast 466 536 37,500 -2,647 Descending FlightAware UK
Mon 06:02:16 AM 54.8314 -6.3525 119° Southeast 468 539 37,500 3,103 Level FlightAware UK
Mon 06:02:27 AM 54.8220 -6.3240 119° Southeast 473 544 39,000  Climbing FlightAware ADS-B
Mon 06:02:46 AM 54.7984 -6.2528 119° Southeast 468 539 37,500 -2,432 Descending FlightAware UK
Mon 06:03:04 AM 54.7792 -6.1933 119° Southeast 468 539 37,500 4,286 Level FlightAware UK
Mon 06:03:07 AM 54.7790 -6.1940 119° Southeast 470 541 39,000  Climbing FlightAware ADS-B
Mon 06:03:22 AM 54.7598 -6.1347 119° Southeast 468 539 37,500 -2,727 Descending FlightAware UK
Mon 06:03:40 AM 54.7404 -6.0758 120° Southeast 468 539 37,500 3,000 Level FlightAware UK
Mon 06:03:52 AM 54.7300 -6.0460 120° Southeast 467 537 39,000  Climbing FlightAware ADS-B
Mon 06:04:10 AM 54.7080 -5.9778 120° Southeast 466 536 37,500  Descending FlightAware UK
Mon 06:04:32 AM 54.6880 -5.9180 120° Southeast 465 535 39,000  Climbing FlightAware ADS-B
Mon 06:04:58 AM 54.6559 -5.8219 120° Southeast 462 532 37,500  Descending FlightAware UK
Mon 06:05:12 AM 54.6440 -5.7860 120° Southeast 464 534 39,000  Climbing FlightAware ADS-B
Mon 06:05:34 AM 54.6171 -5.7059 120° Southeast 466 536 37,500  Descending FlightAware UK
Mon 06:05:57 AM 54.5950 -5.6410 120° Southeast 464 534 39,000  Climbing FlightAware ADS-B
Mon 06:06:16 AM 54.5716 -5.5712 120° Southeast 462 532 37,500 -2,432 Descending FlightAware UK
Mon 06:06:34 AM 54.5521 -5.5134 120° Southeast 462 532 37,500 4,286 Level FlightAware UK
Mon 06:06:37 AM 54.5530 -5.5160 120° Southeast 464 534 39,000  Climbing FlightAware ADS-B
Mon 06:06:58 AM 54.5260 -5.4364 120° Southeast 462 532 37,500 -2,308 Descending FlightAware UK
Mon 06:07:16 AM 54.5063 -5.3788 121° Southeast 460 529 37,500 3,750 Level FlightAware UK
Mon 06:07:22 AM 54.5030 -5.3700 121° Southeast 465 535 39,000  Climbing FlightAware ADS-B
Mon 06:07:52 AM 54.4669 -5.2633 121° Southeast 460 529 37,500  Descending FlightAware UK
Mon 06:08:02 AM 54.4590 -5.2410 121° Southeast 472 543 39,000 1,636 Climbing FlightAware ADS-B
Mon 06:08:47 AM 54.4110 -5.0990 120° Southeast 472 543 39,000 -1,216 Level FlightAware ADS-B
Mon 06:09:16 AM 54.3737 -4.9920 120° Southeast 464 534 37,500  Descending FlightAware UK
Mon 06:09:27 AM 54.3640 -4.9660 120° Southeast 472 543 39,000  Climbing FlightAware ADS-B
Mon 06:09:52 AM 54.3336 -4.8765 120° Southeast 462 532 37,500  Descending FlightAware UK
Mon 06:10:12 AM 54.3150 -4.8230 120° Southeast 474 545 39,000  Climbing FlightAware ADS-B
Mon 06:10:40 AM 54.2798 -4.7222 120° Southeast 466 536 37,500  Descending FlightAware UK
Mon 06:10:52 AM 54.2700 -4.6950 120° Southeast 473 544 39,000  Climbing FlightAware ADS-B
Mon 06:11:22 AM 54.2326 -4.5877 120° Southeast 470 541 37,500  Descending FlightAware UK
Mon 06:11:32 AM 54.2250 -4.5670 120° Southeast 472 543 39,000  Climbing FlightAware ADS-B
Mon 06:12:04 AM 54.1855 -4.4537 120° Southeast 472 543 37,500  Descending FlightAware UK
Mon 06:12:17 AM 54.1740 -4.4220 120° Southeast 472 543 39,000  Climbing FlightAware ADS-B
Mon 06:12:40 AM 54.1448 -4.3391 120° Southeast 472 543 37,500  Descending FlightAware UK
Mon 06:12:57 AM 54.1310 -4.3000 120° Southeast 467 537 39,000  Climbing FlightAware ADS-B
Mon 06:13:28 AM 54.0912 -4.1892 120° Southeast 470 541 37,500  Descending FlightAware UK
Mon 06:13:32 AM 54.0940 -4.1970 120° Southeast 464 534 39,000  Climbing FlightAware ADS-B
Mon 06:13:52 AM 54.0645 -4.1149 120° Southeast 466 536 37,500 -2,368 Descending FlightAware UK
Mon 06:14:10 AM 54.0445 -4.0593 121° Southeast 466 536 37,500 3,000 Level FlightAware UK
Mon 06:14:22 AM 54.0360 -4.0350 121° Southeast 461 531 39,000  Climbing FlightAware ADS-B
Mon 06:14:52 AM 53.9977 -3.9289 121° Southeast 468 539 37,500  Descending FlightAware UK
Mon 06:15:02 AM 53.9910 -3.9100 121° Southeast 461 531 39,000  Climbing FlightAware ADS-B
Mon 06:15:22 AM 53.9660 -3.8352 121° Southeast 466 536 37,500 -2,368 Descending FlightAware UK
Mon 06:15:40 AM 53.9495 -3.7770 116° Southeast 468 539 37,500 3,600 Level FlightAware UK
Mon 06:15:47 AM 53.9490 -3.7740 116° Southeast 459 528 39,000  Climbing FlightAware ADS-B
Mon 06:16:22 AM 53.9220 -3.6344 116° Southeast 464 534 37,500  Descending FlightAware UK
Mon 06:16:27 AM 53.9220 -3.6350 116° Southeast 456 525 39,000  Climbing FlightAware ADS-B
Mon 06:16:58 AM 53.8993 -3.5117 116° Southeast 464 534 37,500  Descending FlightAware UK
Mon 06:17:07 AM 53.8960 -3.4950 116° Southeast 458 527 39,000  Climbing FlightAware ADS-B
Mon 06:17:23 AM 53.8842 -3.4289 116° Southeast 466 536 37,500 -2,647 Descending FlightAware UK
Mon 06:17:41 AM 53.8728 -3.3673 107° East 466 536 37,500 3,103 Level FlightAware UK
Mon 06:17:52 AM 53.8680 -3.3430 107° East 458 527 39,000 1,765 Climbing FlightAware ADS-B
Mon 06:18:32 AM 53.8430 -3.2040 107° East 459 528 39,000  Level FlightAware ADS-B
Mon 06:18:42 AM 53.8352 -3.1622 108° East 460 529 39,000 -3,333 Level FlightAware ADS-B
Mon 06:18:59 AM 53.8236 -3.1000 108° East 460 529 37,500  Descending FlightAware UK
Mon 06:19:17 AM 53.8150 -3.0540 108° East 462 532 39,000 3,103 Climbing FlightAware ADS-B
Mon 06:19:28 AM 53.8060 -3.0050 107° East 460 529 39,000  Level FlightAware ADS-B
Mon 06:20:22 AM 53.7706 -2.8157 107° East 468 539 39,000 -1,233 Level FlightAware ADS-B
Mon 06:20:41 AM 53.7577 -2.7465 107° East 470 541 37,500  Descending FlightAware UK
Mon 06:20:55 AM 53.7496 -2.7047 107° East 467 537 39,000  Climbing FlightAware ADS-B
Mon 06:21:11 AM 53.7380 -2.6419 107° East 472 543 37,500 -1,957 Descending FlightAware UK
Mon 06:21:41 AM 53.7182 -2.5375 108° East 470 541 37,500  Level FlightAware UK
Mon 06:21:59 AM 53.7065 -2.4762 108° East 472 543 37,500 4,286 Level FlightAware UK
Mon 06:22:02 AM 53.7060 -2.4760 108° East 465 535 39,000 2,500 Climbing FlightAware ADS-B
Mon 06:22:35 AM 53.6833 -2.3570 108° East 466 536 39,000  Level FlightAware ADS-B
Mon 06:23:06 AM 53.6626 -2.2492 108° East 465 535 39,000 -1,875 Level FlightAware ADS-B
Mon 06:23:23 AM 53.6505 -2.1872 108° East 472 543 37,500  Descending FlightAware UK
Mon 06:23:45 AM 53.6373 -2.1189 108° East 465 535 39,000 1,667 Climbing FlightAware ADS-B
Mon 06:24:17 AM 53.6157 -2.0087 108° East 464 534 39,000  Level FlightAware ADS-B
Mon 06:24:52 AM 53.5950 -1.9030 108° East 463 533 39,000 -1,475 Level FlightAware ADS-B
Mon 06:25:18 AM 53.5739 -1.7959 108° East 472 543 37,500  Descending FlightAware UK
Mon 06:25:27 AM 53.5700 -1.7790 108° East 463 533 39,000  Climbing FlightAware ADS-B
Mon 06:26:00 AM 53.5454 -1.6530 108° East 470 541 37,500  Descending FlightAware UK
Mon 06:26:17 AM 53.5360 -1.6070 108° East 462 532 39,000  Climbing FlightAware ADS-B
Mon 06:26:48 AM 53.5125 -1.4896 108° East 468 539 37,500  Descending FlightAware UK
Mon 06:26:57 AM 53.5100 -1.4800 108° East 463 533 39,000  Climbing FlightAware ADS-B
Mon 06:27:30 AM 53.4837 -1.3470 108° East 470 541 37,500  Descending FlightAware UK
Mon 06:27:42 AM 53.4780 -1.3170 108° East 464 534 39,000  Climbing FlightAware ADS-B
Mon 06:28:12 AM 53.4545 -1.2037 108° East 474 545 37,500  Descending FlightAware UK
Mon 06:28:22 AM 53.4500 -1.1820 108° East 463 533 39,000  Climbing FlightAware ADS-B
Mon 06:28:42 AM 53.4336 -1.1018 108° East 470 541 37,500  Descending FlightAware UK
Mon 06:29:02 AM 53.4230 -1.0480 108° East 463 533 39,000  Climbing FlightAware ADS-B
Mon 06:29:36 AM 53.3958 -0.9186 108° East 474 545 37,500  Descending FlightAware UK
Mon 06:29:47 AM 53.3920 -0.9020 108° East 461 531 39,000  Climbing FlightAware ADS-B
Mon 06:30:06 AM 53.3749 -0.8176 108° East 474 545 37,500  Descending FlightAware UK
Mon 06:30:27 AM 53.3640 -0.7680 108° East 459 528 39,000  Climbing FlightAware ADS-B
Mon 06:30:54 AM 53.3413 -0.6568 108° East 470 541 37,500  Descending FlightAware UK
Mon 06:31:12 AM 53.3320 -0.6110 108° East 458 527 39,000 2,813 Climbing FlightAware ADS-B
Mon 06:31:26 AM 53.3201 -0.5565 110° East 460 529 39,000  Level FlightAware ADS-B
Mon 06:31:58 AM 53.2969 -0.4469 109° East 461 531 39,000  Level FlightAware ADS-B
Mon 06:32:32 AM 53.2750 -0.3450 110° East 460 529 39,000  Level FlightAware ADS-B
Mon 06:32:41 AM 53.2665 -0.3038 109° East 461 531 39,000  Level FlightAware ADS-B
Mon 06:33:12 AM 53.2437 -0.1982 110° East 462 532 39,000  Level FlightAware ADS-B
Mon 06:33:43 AM 53.2225 -0.0994 110° East 460 529 39,000 -1,837 Level FlightAware ADS-B
Mon 06:34:01 AM 53.2083 -0.0338 110° East 474 545 37,500  Descending FlightAware UK
Mon 06:34:13 AM 53.2007 0.0010 110° East 459 528 39,000  Climbing FlightAware ADS-B
Mon 06:34:31 AM 53.1866 0.0658 110° East 472 543 37,500  Descending FlightAware UK
Mon 06:34:45 AM 53.1773 0.1088 110° East 457 526 39,000  Climbing FlightAware ADS-B
Mon 06:35:01 AM 53.1651 0.1649 110° East 472 543 37,500  Descending FlightAware UK
Mon 06:35:21 AM 53.1519 0.2248 110° East 456 525 39,000  Climbing FlightAware ADS-B
Mon 06:35:37 AM 53.1391 0.2833 110° East 470 541 37,500  Descending FlightAware UK
Mon 06:35:53 AM 53.1286 0.3308 110° East 457 526 39,000  Climbing FlightAware ADS-B
Mon 06:36:13 AM 53.1129 0.4022 110° East 472 543 37,500  Descending FlightAware UK
Mon 06:36:24 AM 53.1056 0.4348 110° East 457 526 39,000 2,195 Climbing FlightAware ADS-B
Mon 06:36:54 AM 53.0839 0.5328 110° East 458 527 39,000 -1,837 Level FlightAware ADS-B
Mon 06:37:13 AM 53.0689 0.6001 110° East 474 545 37,500  Descending FlightAware UK
Mon 06:37:27 AM 53.0595 0.6419 110° East 457 526 39,000  Climbing FlightAware ADS-B
Mon 06:37:43 AM 53.0469 0.6986 110° East 472 543 37,500  Descending FlightAware UK
Mon 06:37:58 AM 53.0366 0.7442 110° East 457 526 39,000  Climbing FlightAware ADS-B
Mon 06:38:13 AM 53.0248 0.7969 110° East 472 543 37,500  Descending FlightAware UK
Mon 06:38:35 AM 53.0100 0.8620 110° East 457 526 39,000 1,915 Climbing FlightAware ADS-B
Mon 06:39:00 AM 52.9916 0.9439 110° East 457 526 39,000  Level FlightAware ADS-B
Mon 06:39:22 AM 52.9775 1.0194 107° East 456 525 39,000 -2,432 Level FlightAware ADS-B
Mon 06:39:37 AM 52.9697 1.0760 107° East 476 548 37,500  Descending FlightAware UK
Mon 06:39:52 AM 52.9643 1.1229 107° East 455 524 39,000  Climbing FlightAware ADS-B
Mon 06:40:13 AM 52.9556 1.1988 107° East 474 545 37,500  Descending FlightAware UK
Mon 06:40:23 AM 52.9525 1.2272 107° East 453 521 39,000 2,250 Climbing FlightAware ADS-B
Mon 06:40:53 AM 52.9404 1.3311 101° East 452 520 39,000  Level FlightAware ADS-B
Mon 06:41:23 AM 52.9287 1.4301 101° East 451 519 39,000 -2,000 Level FlightAware ADS-B
Mon 06:41:38 AM 52.9223 1.4846 101° East 472 543 37,500  Descending FlightAware UK
Mon 06:41:53 AM 52.9165 1.5329 101° East 451 519 39,000 2,000 Climbing FlightAware ADS-B
Mon 06:42:23 AM 52.9041 1.6363 101° East 452 520 39,000 -1,765 Level FlightAware ADS-B
Mon 06:42:44 AM 52.8955 1.7075 101° East 470 541 37,500  Descending FlightAware UK
Mon 06:42:54 AM 52.8918 1.7390 101° East 452 520 39,000 2,250 Climbing FlightAware ADS-B
Mon 06:43:24 AM 52.8796 1.8390 101° East 452 520 39,000 -1,800 Level FlightAware ADS-B
Mon 06:43:44 AM 52.8708 1.9111 101° East 470 541 37,500  Descending FlightAware UK
Mon 06:43:55 AM 52.8665 1.9461 101° East 453 521 39,000  Climbing FlightAware ADS-B
Mon 06:44:14 AM 52.8583 2.0134 101° East 470 541 37,500  Descending FlightAware UK
Mon 06:44:26 AM 52.8536 2.0505 101° East 453 521 39,000  Climbing FlightAware ADS-B
Mon 06:44:50 AM 52.8431 2.1356 101° East 474 545 37,500  Descending FlightAware UK
Mon 06:45:07 AM 52.8380 2.1730 101° East 455 524 39,000  Climbing FlightAware ADS-B
Mon 06:45:26 AM 52.8278 2.2574 101° East 474 545 37,500 -2,432 Descending FlightAware UK
Mon 06:45:44 AM 52.8200 2.3193 102° East 476 548 37,500 4,286 Level FlightAware UK
Mon 06:45:47 AM 52.8210 2.3120 102° East 455 524 39,000 1,875 Climbing FlightAware ADS-B
Mon 06:46:32 AM 52.8020 2.4580 102° East 453 521 39,000 -1,429 Level FlightAware ADS-B
Mon 06:46:50 AM 52.7918 2.5430 102° East 474 545 37,500  Descending FlightAware UK
Mon 06:47:12 AM 52.7860 2.5860 102° East 453 521 39,000  Climbing FlightAware ADS-B
Mon 06:47:50 AM 52.7556 2.7402 102° East 474 545 37,500  Descending FlightAware UK
Mon 06:47:57 AM 52.7550 2.7400 102° East 453 521 39,000  Climbing FlightAware ADS-B
Mon 06:48:32 AM 52.7106 2.8641 102° East 474 545 37,500  Descending FlightAware UK
Mon 06:48:37 AM 52.7090 2.8690 102° East 451 519 39,000  Climbing FlightAware ADS-B
Mon 06:49:14 AM 52.6662 2.9883 102° East 470 541 37,500  Descending FlightAware UK
Mon 06:49:22 AM 52.6630 2.9970 102° East 452 520 39,000  Climbing FlightAware ADS-B
Mon 06:49:44 AM 52.6346 3.0772 102° East 470 541 37,500  Descending FlightAware UK
Mon 06:50:02 AM 52.6200 3.1200 102° East 454 522 39,000 1,429 Climbing FlightAware ADS-B
Mon 06:50:47 AM 52.5710 3.2570 120° Southeast 458 527 39,000 -1,500 Level FlightAware ADS-B
Mon 06:51:02 AM 52.5526 3.3098 120° Southeast 472 543 37,500  Descending FlightAware UK
Mon 06:51:27 AM 52.5290 3.3760 120° Southeast 460 529 39,000  Climbing FlightAware ADS-B
Mon 06:51:44 AM 52.5071 3.4367 120° Southeast 470 541 37,500 -2,571 Descending FlightAware UK
Mon 06:52:02 AM 52.4878 3.4909 120° Southeast 472 543 37,500 3,913 Level FlightAware UK
Mon 06:52:07 AM 52.4860 3.4950 120° Southeast 462 532 39,000  Climbing FlightAware ADS-B
Mon 06:52:26 AM 52.4617 3.5632 120° Southeast 474 545 37,500  Descending FlightAware UK
Mon 06:52:52 AM 52.4370 3.6290 120° Southeast 462 532 39,000  Climbing FlightAware ADS-B
Mon 06:53:20 AM 52.4028 3.7256 120° Southeast 476 548 37,500  Descending FlightAware UK
Mon 06:53:32 AM 52.3940 3.7500 120° Southeast 461 531 39,000  Climbing FlightAware ADS-B
Mon 06:53:50 AM 52.3700 3.8156 120° Southeast 476 548 37,500  Descending FlightAware UK
Mon 06:54:12 AM 52.3500 3.8690 120° Southeast 460 529 39,000 1,343 Climbing FlightAware ADS-B
Mon 06:54:57 AM 52.3000 4.0070 121° Southeast 459 528 39,000  Level FlightAware ADS-B
Mon 06:55:37 AM 52.2560 4.1270 121° Southeast 458 527 39,000 -1,385 Level FlightAware ADS-B
Mon 06:56:02 AM 52.2262 4.2072 121° Southeast 478 550 37,500  Descending FlightAware UK
Mon 06:56:22 AM 52.2080 4.2550 121° Southeast 456 525 39,000 1,500 Climbing FlightAware ADS-B
Mon 06:57:02 AM 52.1650 4.3710 121° Southeast 455 524 39,000 -1,406 Level FlightAware ADS-B
Mon 06:57:26 AM 52.1351 4.4531 121° Southeast 474 545 37,500  Descending FlightAware UK
Mon 06:57:47 AM 52.1160 4.5030 121° Southeast 454 522 39,000  Climbing FlightAware ADS-B
Mon 06:58:03 AM 52.0953 4.5583 121° Southeast 474 545 37,500 -2,647 Descending FlightAware UK
Mon 06:58:21 AM 52.0757 4.6106 121° Southeast 474 545 37,500 3,750 Level FlightAware UK
Mon 06:58:27 AM 52.0720 4.6210 121° Southeast 453 521 39,000  Climbing FlightAware ADS-B
Mon 06:59:03 AM 52.0288 4.7315 121° Southeast 472 543 37,500  Descending FlightAware UK
Mon 06:59:07 AM 52.0300 4.7330 121° Southeast 453 521 39,000  Climbing FlightAware ADS-B
Mon 06:59:39 AM 51.9894 4.8353 121° Southeast 474 545 37,500  Descending FlightAware UK
Mon 06:59:52 AM 51.9820 4.8590 121° Southeast 453 521 39,000 1,698 Climbing FlightAware ADS-B
Mon 07:00:32 AM 51.9400 4.9700 122° Southeast 454 522 39,000  Level FlightAware ADS-B
Mon 07:01:12 AM 51.8910 5.0960 122° Southeast 456 525 39,000  Level FlightAware ADS-B
Mon 07:01:57 AM 51.8450 5.2170 122° Southeast 458 527 39,000 -1,111 Level FlightAware ADS-B
Mon 07:02:33 AM 51.7938 5.3356 122° Southeast 476 548 37,500  Descending FlightAware UK
Mon 07:02:37 AM 51.7970 5.3410 122° Southeast 458 527 39,000 2,045 Climbing FlightAware ADS-B
Mon 07:03:17 AM 51.7520 5.4570 122° Southeast 460 529 39,000 -1,216 Level FlightAware ADS-B
Mon 07:03:51 AM 51.7107 5.5656 122° Southeast 476 548 37,500  Descending FlightAware UK
Mon 07:04:02 AM 51.7000 5.5900 122° Southeast 461 531 39,000  Climbing FlightAware ADS-B
Mon 07:04:21 AM 51.6773 5.6541 122° Southeast 478 550 37,500 -2,432 Descending FlightAware UK
Mon 07:04:39 AM 51.6573 5.7067 122° Southeast 480 552 37,500 4,286 Level FlightAware UK
Mon 07:04:42 AM 51.6550 5.7050 122° Southeast 461 531 39,000  Climbing FlightAware ADS-B
Mon 07:04:57 AM 51.6377 5.7594 122° Southeast 480 552 37,500  Descending FlightAware UK
Mon 07:05:27 AM 51.6050 5.8330 122° Southeast 460 529 39,000 1,286 Climbing FlightAware ADS-B
Mon 07:06:07 AM 51.5610 5.9430 123° Southeast 460 529 39,000  Level FlightAware ADS-B
Mon 07:06:52 AM 51.5070 6.0810 122° Southeast 459 528 39,000  Level FlightAware ADS-B
Mon 07:07:32 AM 51.4630 6.1910 123° Southeast 459 528 39,000  Level FlightAware ADS-B
Mon 07:08:12 AM 51.4160 6.3070 123° Southeast 460 529 39,000  Level FlightAware ADS-B
Mon 07:08:57 AM 51.3670 6.4280 123° Southeast 461 531 39,000  Level FlightAware ADS-B
Mon 07:09:37 AM 51.3190 6.5470 123° Southeast 461 531 39,000  Level FlightAware ADS-B
Mon 07:10:22 AM 51.2700 6.6680 123° Southeast 462 532 39,000  Level FlightAware ADS-B
Mon 07:11:02 AM 51.2190 6.7940 123° Southeast 463 533 39,000  Level FlightAware ADS-B
Mon 07:11:42 AM 51.1710 6.9100 123° Southeast 464 534 39,000  Level FlightAware ADS-B
Mon 07:12:27 AM 51.1200 7.0350 123° Southeast 465 535 39,000  Level FlightAware ADS-B
Mon 07:13:07 AM 51.0740 7.1450 124° Southeast 466 536 39,000  Level FlightAware ADS-B
Mon 07:13:52 AM 51.0180 7.2790 124° Southeast 467 537 39,000  Level FlightAware ADS-B
Mon 07:14:37 AM 50.9660 7.4040 123° Southeast 466 536 39,000  Level FlightAware ADS-B
Mon 07:15:17 AM 50.9180 7.5180 124° Southeast 466 536 39,000  Level FlightAware ADS-B
Mon 07:15:57 AM 50.8700 7.6310 124° Southeast 465 535 39,000  Level FlightAware ADS-B
Mon 07:16:37 AM 50.8250 7.7380 124° Southeast 464 534 39,000  Level FlightAware ADS-B
Mon 07:17:22 AM 50.7680 7.8720 124° Southeast 464 534 39,000  Level FlightAware ADS-B
Mon 07:18:07 AM 50.7150 7.9960 124° Southeast 465 535 39,000  Level FlightAware ADS-B
Mon 07:18:47 AM 50.6700 8.1010 124° Southeast 466 536 39,000  Level FlightAware ADS-B
Mon 07:19:22 AM 50.6260 8.2030 124° Southeast 467 537 39,000  Level FlightAware ADS-B
Mon 07:20:12 AM 50.5680 8.3370 124° Southeast 466 536 39,000  Level FlightAware ADS-B
Mon 07:20:52 AM 50.5160 8.4560 124° Southeast 466 536 39,000  Level FlightAware ADS-B
Mon 07:21:37 AM 50.4580 8.5850 125° Southeast 468 539 39,000  Level FlightAware ADS-B
Mon 07:22:17 AM 50.3980 8.6840 134° Southeast 472 543 39,000  Level FlightAware ADS-B
Mon 07:22:57 AM 50.3360 8.7790 136° Southeast 470 541 39,000  Level FlightAware ADS-B
Mon 07:23:42 AM 50.2690 8.8840 135° Southeast 469 540 39,000  Level FlightAware ADS-B
Mon 07:24:22 AM 50.2070 8.9760 136° Southeast 468 539 39,000  Level FlightAware ADS-B
Mon 07:25:02 AM 50.1440 9.0690 137° Southeast 468 539 39,000  Level FlightAware ADS-B
Mon 07:25:47 AM 50.0720 9.1770 136° Southeast 468 539 39,000  Level FlightAware ADS-B
Mon 07:26:27 AM 50.0080 9.2710 137° Southeast 471 542 39,000  Level FlightAware ADS-B
Mon 07:27:12 AM 49.9440 9.3650 137° Southeast 473 544 39,000  Level FlightAware ADS-B
Mon 07:27:52 AM 49.8760 9.4650 137° Southeast 475 547 39,000  Level FlightAware ADS-B
Mon 07:28:37 AM 49.8020 9.5730 137° Southeast 474 545 39,000  Level FlightAware ADS-B
Mon 07:29:17 AM 49.7460 9.6550 137° Southeast 473 544 39,000  Level FlightAware ADS-B
Mon 07:29:57 AM 49.6770 9.7550 137° Southeast 472 543 39,000  Level FlightAware ADS-B
Mon 07:30:42 AM 49.6090 9.8520 137° Southeast 471 542 39,000  Level FlightAware ADS-B
Mon 07:31:22 AM 49.5430 9.9470 137° Southeast 466 536 39,000  Level FlightAware ADS-B
Mon 07:32:02 AM 49.4810 10.0350 137° Southeast 465 535 39,000  Level FlightAware ADS-B
Mon 07:32:47 AM 49.4080 10.1390 137° Southeast 473 544 39,000  Level FlightAware ADS-B
Mon 07:33:27 AM 49.3460 10.2280 137° Southeast 474 545 39,000  Level FlightAware ADS-B
Mon 07:34:12 AM 49.2700 10.3350 137° Southeast 474 545 39,000  Level FlightAware ADS-B
Mon 07:34:52 AM 49.2050 10.4270 137° Southeast 473 544 39,000  Level FlightAware ADS-B
Mon 07:35:32 AM 49.1430 10.5200 136° Southeast 472 543 39,000  Level FlightAware ADS-B
Mon 07:36:17 AM 49.0740 10.6230 136° Southeast 471 542 39,000  Level FlightAware ADS-B
Mon 07:36:57 AM 49.0130 10.7140 136° Southeast 470 541 39,000  Level FlightAware ADS-B
Mon 07:37:42 AM 48.9410 10.8190 136° Southeast 468 539 39,000  Level FlightAware ADS-B
Mon 07:38:22 AM 48.8790 10.9100 136° Southeast 467 537 39,000  Level FlightAware ADS-B
Mon 07:39:02 AM 48.8150 11.0030 136° Southeast 466 536 39,000  Level FlightAware ADS-B
Mon 07:39:47 AM 48.7460 11.1040 136° Southeast 465 535 39,000  Level FlightAware ADS-B
Mon 07:40:22 AM 48.6890 11.1850 137° Southeast 465 535 39,000  Level FlightAware ADS-B
Mon 07:41:07 AM 48.6230 11.2910 133° Southeast 464 534 39,000  Level FlightAware ADS-B
Mon 07:41:52 AM 48.5700 11.3980 127° Southeast 466 536 39,000  Level FlightAware ADS-B
Mon 07:42:32 AM 48.5190 11.5020 126° Southeast 467 537 39,000  Level FlightAware ADS-B
Mon 07:43:17 AM 48.4550 11.6250 128° Southeast 468 539 39,000  Level FlightAware ADS-B
Mon 07:43:57 AM 48.3980 11.7220 131° Southeast 467 537 39,000  Level FlightAware ADS-B
Mon 07:44:37 AM 48.3400 11.8230 131° Southeast 467 537 39,000  Level FlightAware ADS-B
Mon 07:45:22 AM 48.2770 11.9300 131° Southeast 466 536 39,000  Level FlightAware ADS-B
Mon 07:45:57 AM 48.2270 12.0130 132° Southeast 466 536 39,000  Level FlightAware ADS-B
Mon 07:46:47 AM 48.1560 12.1310 132° Southeast 468 539 39,000  Level FlightAware ADS-B
Mon 07:47:27 AM 48.0920 12.2210 137° Southeast 469 540 39,000  Level FlightAware ADS-B
Mon 07:48:07 AM 48.0300 12.3100 136° Southeast 469 540 39,000  Level FlightAware ADS-B
Mon 07:48:52 AM 47.9580 12.4110 137° Southeast 471 542 39,000  Level FlightAware ADS-B
Mon 07:49:27 AM 47.9040 12.4870 137° Southeast 471 542 39,000  Level FlightAware ADS-B
Mon 07:50:17 AM 47.8240 12.5980 137° Southeast 471 542 39,000  Level FlightAware ADS-B
Mon 07:50:52 AM 47.7750 12.6680 136° Southeast 472 543 39,000  Level FlightAware ADS-B
Mon 07:51:52 AM 47.6790 12.8130 134° Southeast 472 543 39,000  Level FlightAware ADS-B
Mon 07:52:37 AM 47.6080 12.9180 135° Southeast 475 547 39,000  Level FlightAware ADS-B
Mon 07:53:27 AM 47.5360 13.0250 135° Southeast 477 549 39,000  Level FlightAware ADS-B
Mon 07:54:07 AM 47.4680 13.1240 135° Southeast 476 548 39,000  Level FlightAware ADS-B
Mon 07:54:52 AM 47.3990 13.2250 135° Southeast 475 547 39,000  Level FlightAware ADS-B
Mon 07:55:37 AM 47.3280 13.3300 135° Southeast 469 540 39,000  Level FlightAware ADS-B
Mon 07:56:32 AM 47.2540 13.4550 131° Southeast 476 548 39,000  Level FlightAware ADS-B
Mon 07:57:12 AM 47.1950 13.5590 130° Southeast 475 547 39,000  Level FlightAware ADS-B
Mon 07:57:57 AM 47.1380 13.6550 131° Southeast 476 548 39,000  Level FlightAware ADS-B
Mon 07:58:42 AM 47.0690 13.7730 131° Southeast 477 549 39,000  Level FlightAware ADS-B
Mon 07:59:32 AM 47.0040 13.8830 131° Southeast 477 549 39,000  Level FlightAware ADS-B
Mon 08:00:12 AM 46.9360 13.9990 131° Southeast 477 549 39,000  Level FlightAware ADS-B
Mon 08:01:02 AM 46.8670 14.1150 131° Southeast 477 549 39,000  Level FlightAware ADS-B
Mon 08:01:42 AM 46.8090 14.2130 131° Southeast 480 552 39,000  Level FlightAware ADS-B
Mon 08:02:37 AM 46.7480 14.3510 123° Southeast 483 556 39,000  Level FlightAware ADS-B
Mon 08:03:17 AM 46.7060 14.4460 123° Southeast 483 556 39,000  Level FlightAware ADS-B
Mon 08:04:02 AM 46.6460 14.5820 123° Southeast 468 539 39,000  Level FlightAware ADS-B
Mon 08:04:42 AM 46.5980 14.6880 123° Southeast 463 533 39,000  Level FlightAware ADS-B
Mon 08:05:27 AM 46.5460 14.8040 123° Southeast 464 534 39,000  Level FlightAware ADS-B
Mon 08:06:07 AM 46.4990 14.9090 123° Southeast 464 534 39,000  Level FlightAware ADS-B
Mon 08:06:52 AM 46.4420 15.0360 123° Southeast 462 532 39,000  Level FlightAware ADS-B
Mon 08:07:32 AM 46.3970 15.1350 123° Southeast 460 529 39,000  Level FlightAware ADS-B
Mon 08:08:12 AM 46.3510 15.2360 123° Southeast 459 528 39,000  Level FlightAware ADS-B
Mon 08:08:57 AM 46.2980 15.3520 123° Southeast 461 531 39,000  Level FlightAware ADS-B
Mon 08:09:37 AM 46.2540 15.4470 124° Southeast 460 529 39,000  Level FlightAware ADS-B
Mon 08:10:17 AM 46.2070 15.5580 121° Southeast 467 537 39,000  Level FlightAware ADS-B
Mon 08:11:02 AM 46.1710 15.6910 111° Southeast 469 540 39,000  Level FlightAware ADS-B
Mon 08:11:37 AM 46.1390 15.8020 113° Southeast 467 537 39,000  Level FlightAware ADS-B
Mon 08:12:27 AM 46.0990 15.9390 113° Southeast 463 533 39,000  Level FlightAware ADS-B
Mon 08:13:07 AM 46.0670 16.0480 113° Southeast 466 536 39,000  Level FlightAware ADS-B
Mon 08:13:47 AM 46.0330 16.1640 113° Southeast 472 543 39,000  Level FlightAware ADS-B
Mon 08:14:32 AM 45.9950 16.2910 113° Southeast 472 543 39,000  Level FlightAware ADS-B
Mon 08:15:12 AM 45.9620 16.4040 113° Southeast 472 543 39,000  Level FlightAware ADS-B
Mon 08:15:57 AM 45.9210 16.5430 113° Southeast 472 543 39,000  Level FlightAware ADS-B
Mon 08:16:37 AM 45.8840 16.6670 113° Southeast 468 539 39,000  Level FlightAware ADS-B
Mon 08:17:22 AM 45.8450 16.7960 113° Southeast 468 539 39,000  Level FlightAware ADS-B
Mon 08:18:02 AM 45.8100 16.9130 113° Southeast 468 539 39,000  Level FlightAware ADS-B
Mon 08:18:42 AM 45.7760 17.0240 114° Southeast 468 539 39,000  Level FlightAware ADS-B
Mon 08:19:27 AM 45.7380 17.1500 113° Southeast 467 537 39,000  Level FlightAware ADS-B
Mon 08:20:07 AM 45.7020 17.2670 114° Southeast 466 536 39,000  Level FlightAware ADS-B
Mon 08:20:52 AM 45.6630 17.3920 114° Southeast 465 535 39,000  Level FlightAware ADS-B
Mon 08:21:32 AM 45.6290 17.5040 113° Southeast 465 535 39,000  Level FlightAware ADS-B
Mon 08:22:17 AM 45.5880 17.6350 114° Southeast 470 541 39,000  Level FlightAware ADS-B
Mon 08:22:57 AM 45.5530 17.7460 114° Southeast 471 542 39,000  Level FlightAware ADS-B
Mon 08:23:37 AM 45.5190 17.8560 114° Southeast 472 543 39,000  Level FlightAware ADS-B
Mon 08:24:22 AM 45.4780 17.9860 114° Southeast 473 544 39,000  Level FlightAware ADS-B
Mon 08:25:02 AM 45.4410 18.1030 114° Southeast 474 545 39,000  Level FlightAware ADS-B
Mon 08:25:47 AM 45.4010 18.2310 114° Southeast 475 547 39,000  Level FlightAware ADS-B
Mon 08:26:27 AM 45.3650 18.3420 115° Southeast 474 545 39,000  Level FlightAware ADS-B
Mon 08:27:07 AM 45.3290 18.4560 114° Southeast 473 544 39,000  Level FlightAware ADS-B
Mon 08:27:52 AM 45.2830 18.5790 118° Southeast 466 536 39,000  Level FlightAware ADS-B
Mon 08:28:32 AM 45.2420 18.6820 119° Southeast 469 540 39,000  Level FlightAware ADS-B
Mon 08:29:12 AM 45.1980 18.7930 119° Southeast 469 540 39,000  Level FlightAware ADS-B
Mon 08:29:57 AM 45.1510 18.9130 119° Southeast 473 544 39,000  Level FlightAware ADS-B
Mon 08:30:37 AM 45.1080 19.0220 119° Southeast 473 544 39,000  Level FlightAware ADS-B
Mon 08:31:22 AM 45.0600 19.1440 119° Southeast 470 541 39,000  Level FlightAware ADS-B
Mon 08:32:02 AM 45.0180 19.2510 119° Southeast 468 539 39,000  Level FlightAware ADS-B
Mon 08:32:42 AM 44.9750 19.3580 120° Southeast 467 537 39,000  Level FlightAware ADS-B
Mon 08:33:27 AM 44.9270 19.4770 120° Southeast 465 535 39,000  Level FlightAware ADS-B
Mon 08:34:07 AM 44.8850 19.5820 119° Southeast 464 534 39,000  Level FlightAware ADS-B
Mon 08:34:47 AM 44.8420 19.6900 119° Southeast 466 536 39,000  Level FlightAware ADS-B
Mon 08:35:32 AM 44.7940 19.8080 120° Southeast 464 534 39,000  Level FlightAware ADS-B
Mon 08:36:17 AM 44.7450 19.9280 120° Southeast 464 534 39,000  Level FlightAware ADS-B
Mon 08:36:57 AM 44.7030 20.0320 120° Southeast 460 529 39,000  Level FlightAware ADS-B
Mon 08:37:37 AM 44.6610 20.1350 120° Southeast 463 533 39,000  Level FlightAware ADS-B
Mon 08:38:22 AM 44.6130 20.2520 120° Southeast 463 533 39,000  Level FlightAware ADS-B
Mon 08:39:02 AM 44.5690 20.3580 120° Southeast 462 532 39,000  Level FlightAware ADS-B
Mon 08:39:42 AM 44.5280 20.4550 121° Southeast 462 532 39,000  Level FlightAware ADS-B
Mon 08:40:27 AM 44.4780 20.5760 120° Southeast 463 533 39,000  Level FlightAware ADS-B
Mon 08:41:07 AM 44.4360 20.6780 120° Southeast 466 536 39,000  Level FlightAware ADS-B
Mon 08:41:52 AM 44.3880 20.7930 120° Southeast 467 537 39,000  Level FlightAware ADS-B
Mon 08:42:32 AM 44.3410 20.9030 121° Southeast 474 545 39,000  Level FlightAware ADS-B
Mon 08:43:12 AM 44.2970 21.0070 121° Southeast 475 547 39,000  Level FlightAware ADS-B
Mon 08:44:12 AM 44.2280 21.1720 120° Southeast 481 554 39,000  Level FlightAware ADS-B
Mon 08:44:52 AM 44.1830 21.2770 121° Southeast 481 554 39,000  Level FlightAware ADS-B
Mon 08:45:32 AM 44.1370 21.3830 121° Southeast 477 549 39,000  Level FlightAware ADS-B
Mon 08:46:17 AM 44.0840 21.5070 121° Southeast 477 549 39,000  Level FlightAware ADS-B
Mon 08:46:57 AM 44.0390 21.6110 121° Southeast 479 551 39,000  Level FlightAware ADS-B
Mon 08:47:42 AM 43.9890 21.7270 121° Southeast 477 549 39,000  Level FlightAware ADS-B
Mon 08:48:22 AM 43.9450 21.8290 121° Southeast 478 550 39,000  Level FlightAware ADS-B
Mon 08:49:02 AM 43.8980 21.9350 122° Southeast 478 550 39,000  Level FlightAware ADS-B
Mon 08:49:47 AM 43.8460 22.0540 121° Southeast 480 552 39,000  Level FlightAware ADS-B
Mon 08:50:27 AM 43.8010 22.1640 120° Southeast 483 556 39,000  Level FlightAware ADS-B
Mon 08:51:12 AM 43.7550 22.2800 119° Southeast 479 551 39,000  Level FlightAware ADS-B
Mon 08:51:52 AM 43.7100 22.3890 120° Southeast 473 544 39,000  Level FlightAware ADS-B
Mon 08:52:32 AM 43.6690 22.4900 119° Southeast 472 543 39,000  Level FlightAware ADS-B
Mon 08:53:17 AM 43.6190 22.6100 120° Southeast 473 544 39,000  Level FlightAware ADS-B
Mon 08:53:57 AM 43.5760 22.7160 119° Southeast 474 545 39,000  Level FlightAware ADS-B
Mon 08:54:42 AM 43.5270 22.8350 120° Southeast 475 547 39,000  Level FlightAware ADS-B
Mon 08:55:22 AM 43.4840 22.9370 120° Southeast 474 545 39,000  Level FlightAware ADS-B
Mon 08:56:02 AM 43.4400 23.0410 120° Southeast 470 541 39,000  Level FlightAware ADS-B
Mon 08:56:47 AM 43.3900 23.1610 120° Southeast 473 544 39,000  Level FlightAware ADS-B
Mon 08:57:27 AM 43.3440 23.2690 120° Southeast 486 559 39,000  Level FlightAware ADS-B
Mon 08:58:12 AM 43.2850 23.3720 128° Southeast 491 565 39,000  Level FlightAware ADS-B
Mon 08:58:52 AM 43.2250 23.4690 130° Southeast 491 565 39,000  Level FlightAware ADS-B
Mon 08:59:32 AM 43.1660 23.5650 130° Southeast 489 563 39,000  Level FlightAware ADS-B
Mon 09:00:17 AM 43.1000 23.6710 130° Southeast 487 560 39,000  Level FlightAware ADS-B
Mon 09:00:57 AM 43.0430 23.7590 132° Southeast 486 559 39,000  Level FlightAware ADS-B
Mon 09:01:37 AM 42.9820 23.8550 131° Southeast 485 558 39,000  Level FlightAware ADS-B
Mon 09:02:22 AM 42.9190 23.9540 131° Southeast 484 557 39,000  Level FlightAware ADS-B
Mon 09:03:02 AM 42.8580 24.0510 131° Southeast 484 557 39,000  Level FlightAware ADS-B
Mon 09:03:47 AM 42.7920 24.1550 131° Southeast 486 559 39,000  Level FlightAware ADS-B
Mon 09:04:27 AM 42.7360 24.2450 130° Southeast 491 565 39,000  Level FlightAware ADS-B
Mon 09:05:07 AM 42.6780 24.3360 131° Southeast 491 565 39,000  Level FlightAware ADS-B
Mon 09:05:52 AM 42.6160 24.4540 125° Southeast 496 571 39,000  Level FlightAware ADS-B
Mon 09:06:32 AM 42.5780 24.5660 115° Southeast 498 573 39,000  Level FlightAware ADS-B
Mon 09:07:17 AM 42.5340 24.6930 115° Southeast 501 577 39,000  Level FlightAware ADS-B
Mon 09:07:57 AM 42.4950 24.8080 115° Southeast 502 578 39,000  Level FlightAware ADS-B
Mon 09:08:37 AM 42.4560 24.9220 115° Southeast 501 577 39,000  Level FlightAware ADS-B
Mon 09:09:22 AM 42.4120 25.0480 115° Southeast 500 575 39,000  Level FlightAware ADS-B
Mon 09:10:02 AM 42.3740 25.1600 115° Southeast 499 574 39,000  Level FlightAware ADS-B
Mon 09:10:47 AM 42.3290 25.2870 116° Southeast 497 572 39,000  Level FlightAware ADS-B
Mon 09:11:27 AM 42.2920 25.3930 115° Southeast 497 572 39,000 -353 Level FlightAware ADS-B
Mon 09:12:12 AM 42.2460 25.5230 116° Southeast 497 572 38,500 -847 Descending FlightAware ADS-B
Mon 09:12:52 AM 42.2060 25.6370 115° Southeast 504 580 37,800 -975 Descending FlightAware ADS-B
Mon 09:13:32 AM 42.1670 25.7490 115° Southeast 510 587 37,200 -988 Descending FlightAware ADS-B
Mon 09:14:17 AM 42.1200 25.8810 116° Southeast 513 590 36,400 -988 Descending FlightAware ADS-B
Mon 09:14:57 AM 42.0790 25.9950 116° Southeast 514 592 35,800 -900 Descending FlightAware ADS-B
Mon 09:15:37 AM 42.0390 26.1070 116° Southeast 516 594 35,200 -988 Descending FlightAware ADS-B
Mon 09:16:22 AM 41.9920 26.2360 116° Southeast 511 588 34,400 -1,059 Descending FlightAware ADS-B
Mon 09:17:02 AM 41.9500 26.3530 116° Southeast 507 583 33,700 -988 Descending FlightAware ADS-B
Mon 09:17:47 AM 41.9090 26.4650 116° Southeast 497 572 33,000 -918 Descending FlightAware ADS-B
Mon 09:18:27 AM 41.8640 26.5800 118° Southeast 491 565 32,400 -975 Descending FlightAware ADS-B
Mon 09:19:07 AM 41.8140 26.6770 125° Southeast 486 559 31,700 -975 Descending FlightAware ADS-B
Mon 09:19:47 AM 41.7620 26.7800 124° Southeast 478 550 31,100 -988 Descending FlightAware ADS-B
Mon 09:20:32 AM 41.7060 26.8900 124° Southeast 469 540 30,300 -988 Descending FlightAware ADS-B
Mon 09:21:12 AM 41.6560 26.9860 125° Southeast 469 540 29,700 -988 Descending FlightAware ADS-B
Mon 09:21:57 AM 41.5990 27.0940 125° Southeast 463 533 28,900 -988 Descending FlightAware ADS-B
Mon 09:22:37 AM 41.5500 27.1880 125° Southeast 460 529 28,300 -918 Descending FlightAware ADS-B
Mon 09:23:22 AM 41.5010 27.2820 125° Southeast 454 522 27,600 -975 Descending FlightAware ADS-B
Mon 09:23:57 AM 41.4550 27.3680 125° Southeast 453 521 27,000 -1,200 Descending FlightAware ADS-B
Mon 09:26:00 AM 41.3474 27.7020 113° Southeast  Level Estimated
Mon 09:26:27 AM 41.3640 27.7610 113° Southeast 431 496 23,900  Level FlightAware ADS-B
Mon 09:27:17 AM 41.3420 27.8830 103° East 425 489 22,800 -1,516 Descending FlightAware ADS-B
Mon 09:28:02 AM 41.3200 27.9990 104° East 416 479 21,500 -2,188 Descending FlightAware ADS-B
Mon 09:28:42 AM 41.3030 28.0950 103° East 395 455 19,700 -3,075 Descending FlightAware ADS-B
Mon 09:29:22 AM 41.2870 28.1840 103° East 383 441 17,400 -2,700 Descending FlightAware ADS-B
Mon 09:32:00 AM 41.0846 28.5641 124° Southeast  Level FlightAware Approximate
Mon 09:32:22 AM 41.1780 28.5080 124° Southeast 316 364 9,800  Level FlightAware ADS-B
Mon 09:32:32 AM 41.1640 28.5200 147° Southeast 311 358 9,500 -2,000 Descending FlightAware ADS-B
Mon 09:33:07 AM 41.1180 28.5570 149° Southeast 303 349 8,300 -1,569 Descending FlightAware ADS-B
Mon 09:33:37 AM 41.0840 28.5840 149° Southeast 286 329 7,800 -835 Descending FlightAware ADS-B
Mon 09:35:02 AM 40.9970 28.6320 157° South 258 297 6,700 -993 Descending FlightAware ADS-B
Mon 09:36:02 AM 40.9590 28.5400 241° Southwest 251 289 5,400 -1,062 Descending FlightAware ADS-B
Mon 09:37:12 AM 40.9140 28.4470 237° Southwest 248 285 4,400 -670 Descending FlightAware ADS-B
Mon 09:39:00 AM 40.9661 28.7563 77° East  Level Estimated
Mon 09:39:37 AM 40.8300 28.5260 77° East 182 209 3,000  Level FlightAware ADS-B
Mon 09:41:27 AM 40.8820 28.6300 56° Northeast 182 209 3,000 -400 Level FlightAware ADS-B
Mon 09:43:37 AM 40.9320 28.7370 58° Northeast 132 152 1,400 -655 Descending FlightAware ADS-B
Mon 09:44:12 AM 40.9420 28.7600 60° Northeast 135 155 1,200 -771 Descending FlightAware ADS-B
Mon 09:44:47 AM 40.9570 28.7910 57° Northeast 140 161 500 -720 Descending FlightAware ADS-B
Mon 09:45:27 AM 40.9690 28.8190 60° Northeast 140 161 300 -300 Descending FlightAware ADS-B
Mon 09:48:00 AM 40.9667 28.8000 128° Southeast  Level FlightAware Approximate
Mon 09:49:00 AM 40.9769 28.8211 128° Southeast  Level Estimated
Mon 09:50:00 AM 40.9769 28.8211 128° Southeast  Level Estimated
Mon 09:51:00 AM 40.9769 28.8211 128° Southeast  Level Estimated

Login

Don't have an account? Register now (free) for customized features, flight alerts, and more!